<?xml version="1.0" encoding="UTF-8" standalone="no" ?>
<gpx xmlns="http://www.topografix.com/GPX/1/1" xmlns:xsi="http://www.w3.org/2001/XMLSchema-instance" xsi:schemaLocation="http://www.topografix.com/GPX/1/1 http://www.topografix.com/GPX/1/1/gpx.xsd" version="1.1" creator="VisuGPX - https://www.visugpx.com">
  <metadata>
    <name>carriers des meules</name>
    <desc><![CDATA[a decouvrir]]></desc>
  </metadata>
  <trk>
    <name><![CDATA[2016-03-07 16:25:14]]></name>
    <trkseg>
      <trkpt lat="43.82736" lon="4.26141">
        <ele>87.62</ele>
        <time>2016-03-07T12:45:39Z</time>
      </trkpt>
      <trkpt lat="43.82735" lon="4.26141">
        <ele>90.5</ele>
        <time>2016-03-07T12:45:58Z</time>
      </trkpt>
      <trkpt lat="43.82737" lon="4.26141">
        <ele>88.58</ele>
        <time>2016-03-07T12:46:17Z</time>
      </trkpt>
      <trkpt lat="43.82739" lon="4.26142">
        <ele>88.1</ele>
        <time>2016-03-07T12:46:33Z</time>
      </trkpt>
      <trkpt lat="43.82737" lon="4.26148">
        <ele>89.06</ele>
        <time>2016-03-07T12:46:46Z</time>
      </trkpt>
      <trkpt lat="43.82735" lon="4.26154">
        <ele>90.02</ele>
        <time>2016-03-07T12:47:02Z</time>
      </trkpt>
      <trkpt lat="43.82735" lon="4.26149">
        <ele>89.54</ele>
        <time>2016-03-07T12:47:18Z</time>
      </trkpt>
      <trkpt lat="43.82734" lon="4.26146">
        <ele>87.14</ele>
        <time>2016-03-07T12:47:35Z</time>
      </trkpt>
      <trkpt lat="43.82736" lon="4.26151">
        <ele>88.58</ele>
        <time>2016-03-07T12:47:52Z</time>
      </trkpt>
      <trkpt lat="43.82737" lon="4.26156">
        <ele>88.1</ele>
        <time>2016-03-07T12:47:59Z</time>
      </trkpt>
      <trkpt lat="43.82735" lon="4.26161">
        <ele>87.62</ele>
        <time>2016-03-07T12:48:03Z</time>
      </trkpt>
      <trkpt lat="43.82733" lon="4.26179">
        <ele>89.06</ele>
        <time>2016-03-07T12:48:14Z</time>
      </trkpt>
      <trkpt lat="43.82733" lon="4.26193">
        <ele>88.58</ele>
        <time>2016-03-07T12:48:24Z</time>
      </trkpt>
      <trkpt lat="43.82735" lon="4.26197">
        <ele>87.14</ele>
        <time>2016-03-07T12:48:36Z</time>
      </trkpt>
      <trkpt lat="43.82735" lon="4.26195">
        <ele>85.69</ele>
        <time>2016-03-07T12:48:55Z</time>
      </trkpt>
      <trkpt lat="43.82734" lon="4.26199">
        <ele>87.62</ele>
        <time>2016-03-07T12:49:01Z</time>
      </trkpt>
      <trkpt lat="43.82721" lon="4.262">
        <ele>88.1</ele>
        <time>2016-03-07T12:49:13Z</time>
      </trkpt>
      <trkpt lat="43.8271" lon="4.26201">
        <ele>88.1</ele>
        <time>2016-03-07T12:49:24Z</time>
      </trkpt>
      <trkpt lat="43.827" lon="4.26197">
        <ele>88.58</ele>
        <time>2016-03-07T12:49:35Z</time>
      </trkpt>
      <trkpt lat="43.82686" lon="4.26192">
        <ele>89.06</ele>
        <time>2016-03-07T12:49:47Z</time>
      </trkpt>
      <trkpt lat="43.82674" lon="4.26188">
        <ele>88.58</ele>
        <time>2016-03-07T12:49:58Z</time>
      </trkpt>
      <trkpt lat="43.82662" lon="4.26184">
        <ele>86.66</ele>
        <time>2016-03-07T12:50:10Z</time>
      </trkpt>
      <trkpt lat="43.82647" lon="4.26183">
        <ele>85.69</ele>
        <time>2016-03-07T12:50:24Z</time>
      </trkpt>
      <trkpt lat="43.82644" lon="4.26185">
        <ele>85.69</ele>
        <time>2016-03-07T12:50:28Z</time>
      </trkpt>
      <trkpt lat="43.82641" lon="4.26206">
        <ele>85.69</ele>
        <time>2016-03-07T12:50:41Z</time>
      </trkpt>
      <trkpt lat="43.8264" lon="4.26212">
        <ele>85.69</ele>
        <time>2016-03-07T12:50:45Z</time>
      </trkpt>
      <trkpt lat="43.82639" lon="4.26231">
        <ele>86.66</ele>
        <time>2016-03-07T12:50:57Z</time>
      </trkpt>
      <trkpt lat="43.82639" lon="4.26232">
        <ele>86.66</ele>
        <time>2016-03-07T12:50:58Z</time>
      </trkpt>
      <trkpt lat="43.82634" lon="4.26249">
        <ele>90.5</ele>
        <time>2016-03-07T12:51:09Z</time>
      </trkpt>
      <trkpt lat="43.82634" lon="4.2625">
        <ele>90.98</ele>
        <time>2016-03-07T12:51:10Z</time>
      </trkpt>
      <trkpt lat="43.8263" lon="4.26257">
        <ele>94.83</ele>
        <time>2016-03-07T12:51:15Z</time>
      </trkpt>
      <trkpt lat="43.82632" lon="4.26264">
        <ele>96.27</ele>
        <time>2016-03-07T12:51:18Z</time>
      </trkpt>
      <trkpt lat="43.82633" lon="4.2627">
        <ele>97.71</ele>
        <time>2016-03-07T12:51:22Z</time>
      </trkpt>
      <trkpt lat="43.82629" lon="4.26277">
        <ele>102.52</ele>
        <time>2016-03-07T12:51:28Z</time>
      </trkpt>
      <trkpt lat="43.8263" lon="4.26282">
        <ele>105.4</ele>
        <time>2016-03-07T12:51:32Z</time>
      </trkpt>
      <trkpt lat="43.82639" lon="4.26291">
        <ele>107.81</ele>
        <time>2016-03-07T12:51:45Z</time>
      </trkpt>
      <trkpt lat="43.82644" lon="4.263">
        <ele>104.92</ele>
        <time>2016-03-07T12:51:55Z</time>
      </trkpt>
      <trkpt lat="43.82648" lon="4.26315">
        <ele>100.11</ele>
        <time>2016-03-07T12:52:07Z</time>
      </trkpt>
      <trkpt lat="43.8265" lon="4.26319">
        <ele>98.67</ele>
        <time>2016-03-07T12:52:11Z</time>
      </trkpt>
      <trkpt lat="43.82657" lon="4.26338">
        <ele>92.9</ele>
        <time>2016-03-07T12:52:25Z</time>
      </trkpt>
      <trkpt lat="43.8266" lon="4.26355">
        <ele>91.94</ele>
        <time>2016-03-07T12:52:38Z</time>
      </trkpt>
      <trkpt lat="43.82663" lon="4.26372">
        <ele>90.02</ele>
        <time>2016-03-07T12:52:52Z</time>
      </trkpt>
      <trkpt lat="43.82667" lon="4.26382">
        <ele>91.46</ele>
        <time>2016-03-07T12:53:00Z</time>
      </trkpt>
      <trkpt lat="43.82674" lon="4.26393">
        <ele>91.94</ele>
        <time>2016-03-07T12:53:14Z</time>
      </trkpt>
      <trkpt lat="43.82675" lon="4.26395">
        <ele>91.94</ele>
        <time>2016-03-07T12:53:15Z</time>
      </trkpt>
      <trkpt lat="43.82677" lon="4.26401">
        <ele>92.9</ele>
        <time>2016-03-07T12:53:20Z</time>
      </trkpt>
      <trkpt lat="43.8268" lon="4.26405">
        <ele>92.9</ele>
        <time>2016-03-07T12:53:25Z</time>
      </trkpt>
      <trkpt lat="43.82682" lon="4.26417">
        <ele>92.9</ele>
        <time>2016-03-07T12:53:37Z</time>
      </trkpt>
      <trkpt lat="43.82681" lon="4.26435">
        <ele>94.35</ele>
        <time>2016-03-07T12:53:48Z</time>
      </trkpt>
      <trkpt lat="43.8268" lon="4.26454">
        <ele>93.87</ele>
        <time>2016-03-07T12:54:00Z</time>
      </trkpt>
      <trkpt lat="43.82678" lon="4.26472">
        <ele>92.42</ele>
        <time>2016-03-07T12:54:11Z</time>
      </trkpt>
      <trkpt lat="43.82677" lon="4.2649">
        <ele>92.9</ele>
        <time>2016-03-07T12:54:22Z</time>
      </trkpt>
      <trkpt lat="43.82675" lon="4.2651">
        <ele>92.9</ele>
        <time>2016-03-07T12:54:35Z</time>
      </trkpt>
      <trkpt lat="43.82675" lon="4.26528">
        <ele>93.39</ele>
        <time>2016-03-07T12:54:46Z</time>
      </trkpt>
      <trkpt lat="43.82677" lon="4.26547">
        <ele>94.35</ele>
        <time>2016-03-07T12:54:57Z</time>
      </trkpt>
      <trkpt lat="43.82679" lon="4.26569">
        <ele>94.83</ele>
        <time>2016-03-07T12:55:09Z</time>
      </trkpt>
      <trkpt lat="43.82685" lon="4.26588">
        <ele>95.31</ele>
        <time>2016-03-07T12:55:21Z</time>
      </trkpt>
      <trkpt lat="43.8269" lon="4.26606">
        <ele>96.27</ele>
        <time>2016-03-07T12:55:32Z</time>
      </trkpt>
      <trkpt lat="43.82694" lon="4.26621">
        <ele>98.19</ele>
        <time>2016-03-07T12:55:42Z</time>
      </trkpt>
      <trkpt lat="43.827" lon="4.26636">
        <ele>98.67</ele>
        <time>2016-03-07T12:55:53Z</time>
      </trkpt>
      <trkpt lat="43.82708" lon="4.26653">
        <ele>99.15</ele>
        <time>2016-03-07T12:56:04Z</time>
      </trkpt>
      <trkpt lat="43.82714" lon="4.26666">
        <ele>99.15</ele>
        <time>2016-03-07T12:56:14Z</time>
      </trkpt>
      <trkpt lat="43.8272" lon="4.26684">
        <ele>99.63</ele>
        <time>2016-03-07T12:56:26Z</time>
      </trkpt>
      <trkpt lat="43.82725" lon="4.26703">
        <ele>101.08</ele>
        <time>2016-03-07T12:56:37Z</time>
      </trkpt>
      <trkpt lat="43.82728" lon="4.26721">
        <ele>100.6</ele>
        <time>2016-03-07T12:56:48Z</time>
      </trkpt>
      <trkpt lat="43.82731" lon="4.26743">
        <ele>101.08</ele>
        <time>2016-03-07T12:57:01Z</time>
      </trkpt>
      <trkpt lat="43.82736" lon="4.26763">
        <ele>99.15</ele>
        <time>2016-03-07T12:57:13Z</time>
      </trkpt>
      <trkpt lat="43.82738" lon="4.26783">
        <ele>100.11</ele>
        <time>2016-03-07T12:57:25Z</time>
      </trkpt>
      <trkpt lat="43.8274" lon="4.26803">
        <ele>101.08</ele>
        <time>2016-03-07T12:57:37Z</time>
      </trkpt>
      <trkpt lat="43.82742" lon="4.2682">
        <ele>103.48</ele>
        <time>2016-03-07T12:57:48Z</time>
      </trkpt>
      <trkpt lat="43.82744" lon="4.26835">
        <ele>103.96</ele>
        <time>2016-03-07T12:57:58Z</time>
      </trkpt>
      <trkpt lat="43.82745" lon="4.26854">
        <ele>103.96</ele>
        <time>2016-03-07T12:58:10Z</time>
      </trkpt>
      <trkpt lat="43.82747" lon="4.26865">
        <ele>103.96</ele>
        <time>2016-03-07T12:58:16Z</time>
      </trkpt>
      <trkpt lat="43.82749" lon="4.26885">
        <ele>104.44</ele>
        <time>2016-03-07T12:58:29Z</time>
      </trkpt>
      <trkpt lat="43.82751" lon="4.26896">
        <ele>103.96</ele>
        <time>2016-03-07T12:58:36Z</time>
      </trkpt>
      <trkpt lat="43.82754" lon="4.26919">
        <ele>103.96</ele>
        <time>2016-03-07T12:58:50Z</time>
      </trkpt>
      <trkpt lat="43.82755" lon="4.26939">
        <ele>103.48</ele>
        <time>2016-03-07T12:59:02Z</time>
      </trkpt>
      <trkpt lat="43.82756" lon="4.2696">
        <ele>101.56</ele>
        <time>2016-03-07T12:59:14Z</time>
      </trkpt>
      <trkpt lat="43.82759" lon="4.26979">
        <ele>99.63</ele>
        <time>2016-03-07T12:59:27Z</time>
      </trkpt>
      <trkpt lat="43.82762" lon="4.26992">
        <ele>99.15</ele>
        <time>2016-03-07T12:59:36Z</time>
      </trkpt>
      <trkpt lat="43.82763" lon="4.27002">
        <ele>100.6</ele>
        <time>2016-03-07T12:59:42Z</time>
      </trkpt>
      <trkpt lat="43.82765" lon="4.27023">
        <ele>103</ele>
        <time>2016-03-07T12:59:55Z</time>
      </trkpt>
      <trkpt lat="43.82767" lon="4.2704">
        <ele>106.36</ele>
        <time>2016-03-07T13:00:07Z</time>
      </trkpt>
      <trkpt lat="43.82768" lon="4.27051">
        <ele>106.84</ele>
        <time>2016-03-07T13:00:14Z</time>
      </trkpt>
      <trkpt lat="43.82768" lon="4.27058">
        <ele>107.32</ele>
        <time>2016-03-07T13:00:19Z</time>
      </trkpt>
      <trkpt lat="43.8277" lon="4.27076">
        <ele>106.84</ele>
        <time>2016-03-07T13:00:30Z</time>
      </trkpt>
      <trkpt lat="43.82774" lon="4.27095">
        <ele>105.88</ele>
        <time>2016-03-07T13:00:42Z</time>
      </trkpt>
      <trkpt lat="43.82774" lon="4.27096">
        <ele>105.88</ele>
        <time>2016-03-07T13:00:43Z</time>
      </trkpt>
      <trkpt lat="43.82775" lon="4.27103">
        <ele>106.36</ele>
        <time>2016-03-07T13:00:47Z</time>
      </trkpt>
      <trkpt lat="43.82779" lon="4.27123">
        <ele>107.32</ele>
        <time>2016-03-07T13:00:59Z</time>
      </trkpt>
      <trkpt lat="43.82781" lon="4.27146">
        <ele>107.81</ele>
        <time>2016-03-07T13:01:13Z</time>
      </trkpt>
      <trkpt lat="43.82782" lon="4.27168">
        <ele>107.81</ele>
        <time>2016-03-07T13:01:26Z</time>
      </trkpt>
      <trkpt lat="43.82782" lon="4.27189">
        <ele>107.81</ele>
        <time>2016-03-07T13:01:38Z</time>
      </trkpt>
      <trkpt lat="43.82782" lon="4.27208">
        <ele>107.81</ele>
        <time>2016-03-07T13:01:50Z</time>
      </trkpt>
      <trkpt lat="43.82783" lon="4.27227">
        <ele>108.77</ele>
        <time>2016-03-07T13:02:02Z</time>
      </trkpt>
      <trkpt lat="43.82785" lon="4.27234">
        <ele>108.77</ele>
        <time>2016-03-07T13:02:07Z</time>
      </trkpt>
      <trkpt lat="43.82789" lon="4.27251">
        <ele>108.77</ele>
        <time>2016-03-07T13:02:20Z</time>
      </trkpt>
      <trkpt lat="43.82787" lon="4.27254">
        <ele>109.25</ele>
        <time>2016-03-07T13:02:33Z</time>
      </trkpt>
      <trkpt lat="43.82786" lon="4.27258">
        <ele>110.21</ele>
        <time>2016-03-07T13:03:01Z</time>
      </trkpt>
      <trkpt lat="43.82786" lon="4.2726">
        <ele>109.25</ele>
        <time>2016-03-07T13:03:27Z</time>
      </trkpt>
      <trkpt lat="43.82787" lon="4.27263">
        <ele>108.77</ele>
        <time>2016-03-07T13:03:52Z</time>
      </trkpt>
      <trkpt lat="43.82784" lon="4.27276">
        <ele>108.29</ele>
        <time>2016-03-07T13:04:03Z</time>
      </trkpt>
      <trkpt lat="43.82783" lon="4.27294">
        <ele>106.84</ele>
        <time>2016-03-07T13:04:15Z</time>
      </trkpt>
      <trkpt lat="43.82783" lon="4.27313">
        <ele>105.88</ele>
        <time>2016-03-07T13:04:27Z</time>
      </trkpt>
      <trkpt lat="43.82781" lon="4.27333">
        <ele>106.84</ele>
        <time>2016-03-07T13:04:40Z</time>
      </trkpt>
      <trkpt lat="43.8278" lon="4.27354">
        <ele>107.32</ele>
        <time>2016-03-07T13:04:53Z</time>
      </trkpt>
      <trkpt lat="43.82779" lon="4.27356">
        <ele>107.32</ele>
        <time>2016-03-07T13:04:55Z</time>
      </trkpt>
      <trkpt lat="43.82776" lon="4.27378">
        <ele>108.77</ele>
        <time>2016-03-07T13:05:09Z</time>
      </trkpt>
      <trkpt lat="43.82773" lon="4.27399">
        <ele>107.32</ele>
        <time>2016-03-07T13:05:22Z</time>
      </trkpt>
      <trkpt lat="43.8277" lon="4.27417">
        <ele>107.32</ele>
        <time>2016-03-07T13:05:34Z</time>
      </trkpt>
      <trkpt lat="43.8277" lon="4.27418">
        <ele>107.32</ele>
        <time>2016-03-07T13:05:35Z</time>
      </trkpt>
      <trkpt lat="43.82765" lon="4.27443">
        <ele>107.81</ele>
        <time>2016-03-07T13:05:50Z</time>
      </trkpt>
      <trkpt lat="43.82764" lon="4.27465">
        <ele>105.4</ele>
        <time>2016-03-07T13:06:04Z</time>
      </trkpt>
      <trkpt lat="43.82763" lon="4.27486">
        <ele>103.48</ele>
        <time>2016-03-07T13:06:17Z</time>
      </trkpt>
      <trkpt lat="43.82762" lon="4.27506">
        <ele>102.52</ele>
        <time>2016-03-07T13:06:29Z</time>
      </trkpt>
      <trkpt lat="43.82761" lon="4.27526">
        <ele>101.08</ele>
        <time>2016-03-07T13:06:42Z</time>
      </trkpt>
      <trkpt lat="43.82762" lon="4.27533">
        <ele>100.6</ele>
        <time>2016-03-07T13:06:46Z</time>
      </trkpt>
      <trkpt lat="43.82768" lon="4.27551">
        <ele>99.15</ele>
        <time>2016-03-07T13:06:59Z</time>
      </trkpt>
      <trkpt lat="43.82776" lon="4.27569">
        <ele>98.19</ele>
        <time>2016-03-07T13:07:12Z</time>
      </trkpt>
      <trkpt lat="43.82783" lon="4.27584">
        <ele>98.19</ele>
        <time>2016-03-07T13:07:23Z</time>
      </trkpt>
      <trkpt lat="43.82791" lon="4.27598">
        <ele>96.75</ele>
        <time>2016-03-07T13:07:34Z</time>
      </trkpt>
      <trkpt lat="43.82797" lon="4.27611">
        <ele>96.75</ele>
        <time>2016-03-07T13:07:44Z</time>
      </trkpt>
      <trkpt lat="43.82803" lon="4.27625">
        <ele>95.79</ele>
        <time>2016-03-07T13:07:55Z</time>
      </trkpt>
      <trkpt lat="43.82809" lon="4.2764">
        <ele>96.27</ele>
        <time>2016-03-07T13:08:05Z</time>
      </trkpt>
      <trkpt lat="43.82811" lon="4.27659">
        <ele>98.19</ele>
        <time>2016-03-07T13:08:17Z</time>
      </trkpt>
      <trkpt lat="43.8281" lon="4.27679">
        <ele>99.63</ele>
        <time>2016-03-07T13:08:30Z</time>
      </trkpt>
      <trkpt lat="43.8281" lon="4.27697">
        <ele>102.52</ele>
        <time>2016-03-07T13:08:41Z</time>
      </trkpt>
      <trkpt lat="43.82809" lon="4.27714">
        <ele>103.96</ele>
        <time>2016-03-07T13:08:52Z</time>
      </trkpt>
      <trkpt lat="43.82809" lon="4.27724">
        <ele>104.44</ele>
        <time>2016-03-07T13:08:58Z</time>
      </trkpt>
      <trkpt lat="43.82809" lon="4.27736">
        <ele>103.96</ele>
        <time>2016-03-07T13:09:05Z</time>
      </trkpt>
      <trkpt lat="43.8281" lon="4.27756">
        <ele>103.96</ele>
        <time>2016-03-07T13:09:17Z</time>
      </trkpt>
      <trkpt lat="43.82809" lon="4.27771">
        <ele>103.96</ele>
        <time>2016-03-07T13:09:26Z</time>
      </trkpt>
      <trkpt lat="43.8281" lon="4.27793">
        <ele>103.48</ele>
        <time>2016-03-07T13:09:39Z</time>
      </trkpt>
      <trkpt lat="43.82809" lon="4.27809">
        <ele>103</ele>
        <time>2016-03-07T13:09:49Z</time>
      </trkpt>
      <trkpt lat="43.8281" lon="4.27831">
        <ele>103.48</ele>
        <time>2016-03-07T13:10:03Z</time>
      </trkpt>
      <trkpt lat="43.82811" lon="4.27852">
        <ele>103.48</ele>
        <time>2016-03-07T13:10:15Z</time>
      </trkpt>
      <trkpt lat="43.82812" lon="4.27869">
        <ele>103.48</ele>
        <time>2016-03-07T13:10:26Z</time>
      </trkpt>
      <trkpt lat="43.82813" lon="4.2789">
        <ele>103.96</ele>
        <time>2016-03-07T13:10:39Z</time>
      </trkpt>
      <trkpt lat="43.82813" lon="4.2791">
        <ele>103.96</ele>
        <time>2016-03-07T13:10:50Z</time>
      </trkpt>
      <trkpt lat="43.82815" lon="4.27926">
        <ele>102.04</ele>
        <time>2016-03-07T13:11:01Z</time>
      </trkpt>
      <trkpt lat="43.82818" lon="4.27946">
        <ele>102.04</ele>
        <time>2016-03-07T13:11:13Z</time>
      </trkpt>
      <trkpt lat="43.82821" lon="4.27966">
        <ele>103</ele>
        <time>2016-03-07T13:11:25Z</time>
      </trkpt>
      <trkpt lat="43.82821" lon="4.27972">
        <ele>103.48</ele>
        <time>2016-03-07T13:11:29Z</time>
      </trkpt>
      <trkpt lat="43.82825" lon="4.27994">
        <ele>103</ele>
        <time>2016-03-07T13:11:42Z</time>
      </trkpt>
      <trkpt lat="43.82827" lon="4.28012">
        <ele>103.48</ele>
        <time>2016-03-07T13:11:53Z</time>
      </trkpt>
      <trkpt lat="43.82829" lon="4.28031">
        <ele>103.48</ele>
        <time>2016-03-07T13:12:05Z</time>
      </trkpt>
      <trkpt lat="43.82831" lon="4.28048">
        <ele>103.96</ele>
        <time>2016-03-07T13:12:16Z</time>
      </trkpt>
      <trkpt lat="43.82834" lon="4.28067">
        <ele>103.48</ele>
        <time>2016-03-07T13:12:28Z</time>
      </trkpt>
      <trkpt lat="43.82836" lon="4.28085">
        <ele>103</ele>
        <time>2016-03-07T13:12:39Z</time>
      </trkpt>
      <trkpt lat="43.82837" lon="4.28102">
        <ele>104.44</ele>
        <time>2016-03-07T13:12:50Z</time>
      </trkpt>
      <trkpt lat="43.82839" lon="4.28119">
        <ele>106.36</ele>
        <time>2016-03-07T13:13:01Z</time>
      </trkpt>
      <trkpt lat="43.82842" lon="4.28135">
        <ele>105.4</ele>
        <time>2016-03-07T13:13:12Z</time>
      </trkpt>
      <trkpt lat="43.82845" lon="4.2815">
        <ele>106.84</ele>
        <time>2016-03-07T13:13:23Z</time>
      </trkpt>
      <trkpt lat="43.82848" lon="4.28168">
        <ele>108.29</ele>
        <time>2016-03-07T13:13:35Z</time>
      </trkpt>
      <trkpt lat="43.82852" lon="4.28186">
        <ele>110.69</ele>
        <time>2016-03-07T13:13:47Z</time>
      </trkpt>
      <trkpt lat="43.82853" lon="4.28187">
        <ele>110.69</ele>
        <time>2016-03-07T13:13:48Z</time>
      </trkpt>
      <trkpt lat="43.82856" lon="4.28197">
        <ele>111.17</ele>
        <time>2016-03-07T13:13:55Z</time>
      </trkpt>
      <trkpt lat="43.82861" lon="4.28213">
        <ele>111.65</ele>
        <time>2016-03-07T13:14:06Z</time>
      </trkpt>
      <trkpt lat="43.82862" lon="4.28214">
        <ele>111.65</ele>
        <time>2016-03-07T13:14:07Z</time>
      </trkpt>
      <trkpt lat="43.82864" lon="4.2822">
        <ele>114.53</ele>
        <time>2016-03-07T13:14:19Z</time>
      </trkpt>
      <trkpt lat="43.82864" lon="4.28224">
        <ele>115.5</ele>
        <time>2016-03-07T13:14:37Z</time>
      </trkpt>
      <trkpt lat="43.82867" lon="4.2823">
        <ele>115.98</ele>
        <time>2016-03-07T13:14:52Z</time>
      </trkpt>
      <trkpt lat="43.82875" lon="4.28237">
        <ele>116.46</ele>
        <time>2016-03-07T13:15:03Z</time>
      </trkpt>
      <trkpt lat="43.82879" lon="4.28237">
        <ele>115.01</ele>
        <time>2016-03-07T13:15:11Z</time>
      </trkpt>
      <trkpt lat="43.82883" lon="4.28236">
        <ele>115.01</ele>
        <time>2016-03-07T13:15:25Z</time>
      </trkpt>
      <trkpt lat="43.82884" lon="4.2824">
        <ele>113.09</ele>
        <time>2016-03-07T13:15:47Z</time>
      </trkpt>
      <trkpt lat="43.82885" lon="4.28242">
        <ele>113.09</ele>
        <time>2016-03-07T13:15:50Z</time>
      </trkpt>
      <trkpt lat="43.82888" lon="4.28244">
        <ele>111.65</ele>
        <time>2016-03-07T13:15:53Z</time>
      </trkpt>
      <trkpt lat="43.82898" lon="4.28257">
        <ele>111.65</ele>
        <time>2016-03-07T13:16:06Z</time>
      </trkpt>
      <trkpt lat="43.82907" lon="4.28271">
        <ele>111.65</ele>
        <time>2016-03-07T13:16:17Z</time>
      </trkpt>
      <trkpt lat="43.82915" lon="4.28283">
        <ele>112.13</ele>
        <time>2016-03-07T13:16:27Z</time>
      </trkpt>
      <trkpt lat="43.82924" lon="4.28296">
        <ele>113.09</ele>
        <time>2016-03-07T13:16:38Z</time>
      </trkpt>
      <trkpt lat="43.82937" lon="4.28313">
        <ele>113.57</ele>
        <time>2016-03-07T13:16:52Z</time>
      </trkpt>
      <trkpt lat="43.8295" lon="4.2832">
        <ele>114.05</ele>
        <time>2016-03-07T13:17:03Z</time>
      </trkpt>
      <trkpt lat="43.82966" lon="4.28324">
        <ele>111.17</ele>
        <time>2016-03-07T13:17:14Z</time>
      </trkpt>
      <trkpt lat="43.82979" lon="4.28331">
        <ele>111.17</ele>
        <time>2016-03-07T13:17:25Z</time>
      </trkpt>
      <trkpt lat="43.82991" lon="4.28336">
        <ele>110.21</ele>
        <time>2016-03-07T13:17:36Z</time>
      </trkpt>
      <trkpt lat="43.82992" lon="4.28337">
        <ele>110.21</ele>
        <time>2016-03-07T13:17:37Z</time>
      </trkpt>
      <trkpt lat="43.83008" lon="4.28348">
        <ele>107.81</ele>
        <time>2016-03-07T13:17:51Z</time>
      </trkpt>
      <trkpt lat="43.83022" lon="4.28347">
        <ele>108.77</ele>
        <time>2016-03-07T13:18:02Z</time>
      </trkpt>
      <trkpt lat="43.8303" lon="4.28351">
        <ele>107.81</ele>
        <time>2016-03-07T13:18:09Z</time>
      </trkpt>
      <trkpt lat="43.83044" lon="4.28354">
        <ele>106.36</ele>
        <time>2016-03-07T13:18:21Z</time>
      </trkpt>
      <trkpt lat="43.83053" lon="4.28355">
        <ele>107.32</ele>
        <time>2016-03-07T13:18:31Z</time>
      </trkpt>
      <trkpt lat="43.83057" lon="4.28357">
        <ele>107.32</ele>
        <time>2016-03-07T13:18:36Z</time>
      </trkpt>
      <trkpt lat="43.83069" lon="4.28362">
        <ele>109.73</ele>
        <time>2016-03-07T13:18:48Z</time>
      </trkpt>
      <trkpt lat="43.83078" lon="4.28363">
        <ele>114.05</ele>
        <time>2016-03-07T13:18:58Z</time>
      </trkpt>
      <trkpt lat="43.83081" lon="4.28367">
        <ele>115.98</ele>
        <time>2016-03-07T13:19:03Z</time>
      </trkpt>
      <trkpt lat="43.83089" lon="4.28372">
        <ele>117.42</ele>
        <time>2016-03-07T13:19:12Z</time>
      </trkpt>
      <trkpt lat="43.831" lon="4.28377">
        <ele>120.3</ele>
        <time>2016-03-07T13:19:25Z</time>
      </trkpt>
      <trkpt lat="43.83107" lon="4.28384">
        <ele>123.67</ele>
        <time>2016-03-07T13:19:36Z</time>
      </trkpt>
      <trkpt lat="43.83111" lon="4.28392">
        <ele>124.63</ele>
        <time>2016-03-07T13:19:46Z</time>
      </trkpt>
      <trkpt lat="43.83117" lon="4.28399">
        <ele>124.63</ele>
        <time>2016-03-07T13:19:57Z</time>
      </trkpt>
      <trkpt lat="43.8312" lon="4.28405">
        <ele>125.59</ele>
        <time>2016-03-07T13:20:10Z</time>
      </trkpt>
      <trkpt lat="43.8312" lon="4.28406">
        <ele>126.07</ele>
        <time>2016-03-07T13:20:11Z</time>
      </trkpt>
      <trkpt lat="43.83121" lon="4.28419">
        <ele>126.07</ele>
        <time>2016-03-07T13:20:23Z</time>
      </trkpt>
      <trkpt lat="43.8312" lon="4.2843">
        <ele>128.47</ele>
        <time>2016-03-07T13:20:34Z</time>
      </trkpt>
      <trkpt lat="43.83121" lon="4.28436">
        <ele>128.95</ele>
        <time>2016-03-07T13:20:39Z</time>
      </trkpt>
      <trkpt lat="43.83125" lon="4.28449">
        <ele>129.92</ele>
        <time>2016-03-07T13:20:50Z</time>
      </trkpt>
      <trkpt lat="43.83129" lon="4.28458">
        <ele>129.43</ele>
        <time>2016-03-07T13:20:59Z</time>
      </trkpt>
      <trkpt lat="43.83134" lon="4.28468">
        <ele>130.4</ele>
        <time>2016-03-07T13:21:10Z</time>
      </trkpt>
      <trkpt lat="43.83136" lon="4.28471">
        <ele>131.84</ele>
        <time>2016-03-07T13:21:14Z</time>
      </trkpt>
      <trkpt lat="43.83143" lon="4.28478">
        <ele>134.72</ele>
        <time>2016-03-07T13:21:25Z</time>
      </trkpt>
      <trkpt lat="43.83152" lon="4.2849">
        <ele>138.09</ele>
        <time>2016-03-07T13:21:38Z</time>
      </trkpt>
      <trkpt lat="43.83159" lon="4.28496">
        <ele>138.09</ele>
        <time>2016-03-07T13:21:50Z</time>
      </trkpt>
      <trkpt lat="43.83161" lon="4.28494">
        <ele>136.64</ele>
        <time>2016-03-07T13:22:08Z</time>
      </trkpt>
      <trkpt lat="43.83161" lon="4.28493">
        <ele>138.09</ele>
        <time>2016-03-07T13:22:33Z</time>
      </trkpt>
      <trkpt lat="43.8316" lon="4.28495">
        <ele>136.64</ele>
        <time>2016-03-07T13:22:56Z</time>
      </trkpt>
      <trkpt lat="43.83164" lon="4.28501">
        <ele>137.61</ele>
        <time>2016-03-07T13:23:13Z</time>
      </trkpt>
      <trkpt lat="43.83168" lon="4.28503">
        <ele>136.64</ele>
        <time>2016-03-07T13:23:26Z</time>
      </trkpt>
      <trkpt lat="43.83164" lon="4.28506">
        <ele>136.16</ele>
        <time>2016-03-07T13:23:39Z</time>
      </trkpt>
      <trkpt lat="43.83168" lon="4.28512">
        <ele>135.2</ele>
        <time>2016-03-07T13:23:47Z</time>
      </trkpt>
      <trkpt lat="43.83177" lon="4.28521">
        <ele>133.28</ele>
        <time>2016-03-07T13:23:58Z</time>
      </trkpt>
      <trkpt lat="43.83184" lon="4.28532">
        <ele>130.88</ele>
        <time>2016-03-07T13:24:10Z</time>
      </trkpt>
      <trkpt lat="43.8319" lon="4.28539">
        <ele>129.92</ele>
        <time>2016-03-07T13:24:19Z</time>
      </trkpt>
      <trkpt lat="43.832" lon="4.28549">
        <ele>128.47</ele>
        <time>2016-03-07T13:24:30Z</time>
      </trkpt>
      <trkpt lat="43.83204" lon="4.28553">
        <ele>127.99</ele>
        <time>2016-03-07T13:24:35Z</time>
      </trkpt>
      <trkpt lat="43.83213" lon="4.28563">
        <ele>128.95</ele>
        <time>2016-03-07T13:24:46Z</time>
      </trkpt>
      <trkpt lat="43.83223" lon="4.28575">
        <ele>128.47</ele>
        <time>2016-03-07T13:24:58Z</time>
      </trkpt>
      <trkpt lat="43.83233" lon="4.28588">
        <ele>126.55</ele>
        <time>2016-03-07T13:25:11Z</time>
      </trkpt>
      <trkpt lat="43.83242" lon="4.28598">
        <ele>127.03</ele>
        <time>2016-03-07T13:25:21Z</time>
      </trkpt>
      <trkpt lat="43.83251" lon="4.2861">
        <ele>127.03</ele>
        <time>2016-03-07T13:25:32Z</time>
      </trkpt>
      <trkpt lat="43.83254" lon="4.28613">
        <ele>127.51</ele>
        <time>2016-03-07T13:25:36Z</time>
      </trkpt>
      <trkpt lat="43.83265" lon="4.28625">
        <ele>127.51</ele>
        <time>2016-03-07T13:25:49Z</time>
      </trkpt>
      <trkpt lat="43.83269" lon="4.28629">
        <ele>127.03</ele>
        <time>2016-03-07T13:25:54Z</time>
      </trkpt>
      <trkpt lat="43.83278" lon="4.28636">
        <ele>125.59</ele>
        <time>2016-03-07T13:26:04Z</time>
      </trkpt>
      <trkpt lat="43.83289" lon="4.28644">
        <ele>125.59</ele>
        <time>2016-03-07T13:26:16Z</time>
      </trkpt>
      <trkpt lat="43.83301" lon="4.28652">
        <ele>124.63</ele>
        <time>2016-03-07T13:26:29Z</time>
      </trkpt>
      <trkpt lat="43.83312" lon="4.2866">
        <ele>123.67</ele>
        <time>2016-03-07T13:26:41Z</time>
      </trkpt>
      <trkpt lat="43.8332" lon="4.28666">
        <ele>122.22</ele>
        <time>2016-03-07T13:26:52Z</time>
      </trkpt>
      <trkpt lat="43.83328" lon="4.28672">
        <ele>120.78</ele>
        <time>2016-03-07T13:27:03Z</time>
      </trkpt>
      <trkpt lat="43.83335" lon="4.28681">
        <ele>119.82</ele>
        <time>2016-03-07T13:27:17Z</time>
      </trkpt>
      <trkpt lat="43.83343" lon="4.2869">
        <ele>118.86</ele>
        <time>2016-03-07T13:27:30Z</time>
      </trkpt>
      <trkpt lat="43.83351" lon="4.28698">
        <ele>118.86</ele>
        <time>2016-03-07T13:27:42Z</time>
      </trkpt>
      <trkpt lat="43.83361" lon="4.28707">
        <ele>117.9</ele>
        <time>2016-03-07T13:27:54Z</time>
      </trkpt>
      <trkpt lat="43.83368" lon="4.28718">
        <ele>117.42</ele>
        <time>2016-03-07T13:28:08Z</time>
      </trkpt>
      <trkpt lat="43.83377" lon="4.28726">
        <ele>117.9</ele>
        <time>2016-03-07T13:28:19Z</time>
      </trkpt>
      <trkpt lat="43.83385" lon="4.28734">
        <ele>115.5</ele>
        <time>2016-03-07T13:28:31Z</time>
      </trkpt>
      <trkpt lat="43.83389" lon="4.28737">
        <ele>115.01</ele>
        <time>2016-03-07T13:28:35Z</time>
      </trkpt>
      <trkpt lat="43.83399" lon="4.28744">
        <ele>114.05</ele>
        <time>2016-03-07T13:28:47Z</time>
      </trkpt>
      <trkpt lat="43.83408" lon="4.28751">
        <ele>113.09</ele>
        <time>2016-03-07T13:28:56Z</time>
      </trkpt>
      <trkpt lat="43.83416" lon="4.28758">
        <ele>115.01</ele>
        <time>2016-03-07T13:29:07Z</time>
      </trkpt>
      <trkpt lat="43.83425" lon="4.28767">
        <ele>118.38</ele>
        <time>2016-03-07T13:29:20Z</time>
      </trkpt>
      <trkpt lat="43.83432" lon="4.28775">
        <ele>120.78</ele>
        <time>2016-03-07T13:29:31Z</time>
      </trkpt>
      <trkpt lat="43.83439" lon="4.28783">
        <ele>121.26</ele>
        <time>2016-03-07T13:29:41Z</time>
      </trkpt>
      <trkpt lat="43.83448" lon="4.28788">
        <ele>121.74</ele>
        <time>2016-03-07T13:29:51Z</time>
      </trkpt>
      <trkpt lat="43.83455" lon="4.28792">
        <ele>123.19</ele>
        <time>2016-03-07T13:30:02Z</time>
      </trkpt>
      <trkpt lat="43.83455" lon="4.28792">
        <ele>127.99</ele>
        <time>2016-03-07T13:30:20Z</time>
      </trkpt>
      <trkpt lat="43.83459" lon="4.288">
        <ele>128.47</ele>
        <time>2016-03-07T13:30:38Z</time>
      </trkpt>
      <trkpt lat="43.83462" lon="4.28804">
        <ele>131.36</ele>
        <time>2016-03-07T13:30:45Z</time>
      </trkpt>
      <trkpt lat="43.83465" lon="4.28809">
        <ele>131.84</ele>
        <time>2016-03-07T13:30:51Z</time>
      </trkpt>
      <trkpt lat="43.83468" lon="4.28814">
        <ele>133.76</ele>
        <time>2016-03-07T13:31:04Z</time>
      </trkpt>
      <trkpt lat="43.83473" lon="4.28816">
        <ele>134.24</ele>
        <time>2016-03-07T13:31:14Z</time>
      </trkpt>
      <trkpt lat="43.83473" lon="4.28818">
        <ele>134.24</ele>
        <time>2016-03-07T13:31:17Z</time>
      </trkpt>
      <trkpt lat="43.83476" lon="4.28818">
        <ele>133.76</ele>
        <time>2016-03-07T13:31:20Z</time>
      </trkpt>
      <trkpt lat="43.83485" lon="4.28823">
        <ele>134.24</ele>
        <time>2016-03-07T13:31:32Z</time>
      </trkpt>
      <trkpt lat="43.83491" lon="4.28828">
        <ele>136.16</ele>
        <time>2016-03-07T13:31:42Z</time>
      </trkpt>
      <trkpt lat="43.83497" lon="4.28835">
        <ele>139.05</ele>
        <time>2016-03-07T13:31:52Z</time>
      </trkpt>
      <trkpt lat="43.83503" lon="4.28841">
        <ele>140.97</ele>
        <time>2016-03-07T13:32:02Z</time>
      </trkpt>
      <trkpt lat="43.83509" lon="4.28846">
        <ele>142.89</ele>
        <time>2016-03-07T13:32:12Z</time>
      </trkpt>
      <trkpt lat="43.83515" lon="4.28851">
        <ele>144.82</ele>
        <time>2016-03-07T13:32:22Z</time>
      </trkpt>
      <trkpt lat="43.8352" lon="4.28857">
        <ele>145.78</ele>
        <time>2016-03-07T13:32:32Z</time>
      </trkpt>
      <trkpt lat="43.83526" lon="4.28863">
        <ele>146.74</ele>
        <time>2016-03-07T13:32:41Z</time>
      </trkpt>
      <trkpt lat="43.83529" lon="4.28868">
        <ele>147.22</ele>
        <time>2016-03-07T13:32:47Z</time>
      </trkpt>
      <trkpt lat="43.83535" lon="4.28875">
        <ele>147.7</ele>
        <time>2016-03-07T13:32:58Z</time>
      </trkpt>
      <trkpt lat="43.8354" lon="4.28882">
        <ele>149.14</ele>
        <time>2016-03-07T13:33:07Z</time>
      </trkpt>
      <trkpt lat="43.83544" lon="4.28889">
        <ele>151.54</ele>
        <time>2016-03-07T13:33:17Z</time>
      </trkpt>
      <trkpt lat="43.83549" lon="4.28893">
        <ele>152.51</ele>
        <time>2016-03-07T13:33:28Z</time>
      </trkpt>
      <trkpt lat="43.83551" lon="4.28894">
        <ele>151.54</ele>
        <time>2016-03-07T13:33:42Z</time>
      </trkpt>
      <trkpt lat="43.83552" lon="4.28894">
        <ele>152.03</ele>
        <time>2016-03-07T13:34:05Z</time>
      </trkpt>
      <trkpt lat="43.83552" lon="4.289">
        <ele>154.43</ele>
        <time>2016-03-07T13:34:21Z</time>
      </trkpt>
      <trkpt lat="43.83554" lon="4.28905">
        <ele>154.91</ele>
        <time>2016-03-07T13:34:24Z</time>
      </trkpt>
      <trkpt lat="43.83559" lon="4.28918">
        <ele>155.39</ele>
        <time>2016-03-07T13:34:35Z</time>
      </trkpt>
      <trkpt lat="43.83565" lon="4.28928">
        <ele>154.43</ele>
        <time>2016-03-07T13:34:45Z</time>
      </trkpt>
      <trkpt lat="43.83565" lon="4.28929">
        <ele>154.91</ele>
        <time>2016-03-07T13:34:46Z</time>
      </trkpt>
      <trkpt lat="43.83569" lon="4.28937">
        <ele>153.95</ele>
        <time>2016-03-07T13:34:52Z</time>
      </trkpt>
      <trkpt lat="43.83577" lon="4.28948">
        <ele>151.54</ele>
        <time>2016-03-07T13:35:03Z</time>
      </trkpt>
      <trkpt lat="43.83586" lon="4.28959">
        <ele>148.66</ele>
        <time>2016-03-07T13:35:14Z</time>
      </trkpt>
      <trkpt lat="43.83587" lon="4.2896">
        <ele>148.18</ele>
        <time>2016-03-07T13:35:16Z</time>
      </trkpt>
      <trkpt lat="43.83592" lon="4.28964">
        <ele>147.22</ele>
        <time>2016-03-07T13:35:21Z</time>
      </trkpt>
      <trkpt lat="43.836" lon="4.28977">
        <ele>146.74</ele>
        <time>2016-03-07T13:35:32Z</time>
      </trkpt>
      <trkpt lat="43.83609" lon="4.2899">
        <ele>147.22</ele>
        <time>2016-03-07T13:35:43Z</time>
      </trkpt>
      <trkpt lat="43.8361" lon="4.28993">
        <ele>147.7</ele>
        <time>2016-03-07T13:35:46Z</time>
      </trkpt>
      <trkpt lat="43.8362" lon="4.29007">
        <ele>147.22</ele>
        <time>2016-03-07T13:35:59Z</time>
      </trkpt>
      <trkpt lat="43.83629" lon="4.2902">
        <ele>146.26</ele>
        <time>2016-03-07T13:36:11Z</time>
      </trkpt>
      <trkpt lat="43.83639" lon="4.29034">
        <ele>145.3</ele>
        <time>2016-03-07T13:36:23Z</time>
      </trkpt>
      <trkpt lat="43.83647" lon="4.29048">
        <ele>146.26</ele>
        <time>2016-03-07T13:36:34Z</time>
      </trkpt>
      <trkpt lat="43.83648" lon="4.29063">
        <ele>145.3</ele>
        <time>2016-03-07T13:36:46Z</time>
      </trkpt>
      <trkpt lat="43.83648" lon="4.29063">
        <ele>145.3</ele>
        <time>2016-03-07T13:36:47Z</time>
      </trkpt>
      <trkpt lat="43.83638" lon="4.29074">
        <ele>143.85</ele>
        <time>2016-03-07T13:37:00Z</time>
      </trkpt>
      <trkpt lat="43.8363" lon="4.29089">
        <ele>142.89</ele>
        <time>2016-03-07T13:37:12Z</time>
      </trkpt>
      <trkpt lat="43.83623" lon="4.29103">
        <ele>139.53</ele>
        <time>2016-03-07T13:37:24Z</time>
      </trkpt>
      <trkpt lat="43.83618" lon="4.29109">
        <ele>138.09</ele>
        <time>2016-03-07T13:37:31Z</time>
      </trkpt>
      <trkpt lat="43.83612" lon="4.2911">
        <ele>137.61</ele>
        <time>2016-03-07T13:37:35Z</time>
      </trkpt>
      <trkpt lat="43.83597" lon="4.29108">
        <ele>138.57</ele>
        <time>2016-03-07T13:37:48Z</time>
      </trkpt>
      <trkpt lat="43.83587" lon="4.29107">
        <ele>139.53</ele>
        <time>2016-03-07T13:37:57Z</time>
      </trkpt>
      <trkpt lat="43.83584" lon="4.29107">
        <ele>140.01</ele>
        <time>2016-03-07T13:38:00Z</time>
      </trkpt>
      <trkpt lat="43.83569" lon="4.29108">
        <ele>142.89</ele>
        <time>2016-03-07T13:38:13Z</time>
      </trkpt>
      <trkpt lat="43.83564" lon="4.29109">
        <ele>143.37</ele>
        <time>2016-03-07T13:38:18Z</time>
      </trkpt>
      <trkpt lat="43.8355" lon="4.2911">
        <ele>145.78</ele>
        <time>2016-03-07T13:38:31Z</time>
      </trkpt>
      <trkpt lat="43.83537" lon="4.29111">
        <ele>147.22</ele>
        <time>2016-03-07T13:38:42Z</time>
      </trkpt>
      <trkpt lat="43.83524" lon="4.29107">
        <ele>146.26</ele>
        <time>2016-03-07T13:38:54Z</time>
      </trkpt>
      <trkpt lat="43.8351" lon="4.29104">
        <ele>146.74</ele>
        <time>2016-03-07T13:39:07Z</time>
      </trkpt>
      <trkpt lat="43.83497" lon="4.29106">
        <ele>148.18</ele>
        <time>2016-03-07T13:39:18Z</time>
      </trkpt>
      <trkpt lat="43.83487" lon="4.29108">
        <ele>145.78</ele>
        <time>2016-03-07T13:39:28Z</time>
      </trkpt>
      <trkpt lat="43.83474" lon="4.29101">
        <ele>141.93</ele>
        <time>2016-03-07T13:39:42Z</time>
      </trkpt>
      <trkpt lat="43.83468" lon="4.29094">
        <ele>141.45</ele>
        <time>2016-03-07T13:39:54Z</time>
      </trkpt>
      <trkpt lat="43.83467" lon="4.29092">
        <ele>140.01</ele>
        <time>2016-03-07T13:40:12Z</time>
      </trkpt>
      <trkpt lat="43.83462" lon="4.29088">
        <ele>140.01</ele>
        <time>2016-03-07T13:40:18Z</time>
      </trkpt>
      <trkpt lat="43.83451" lon="4.29076">
        <ele>139.05</ele>
        <time>2016-03-07T13:40:33Z</time>
      </trkpt>
      <trkpt lat="43.83446" lon="4.2907">
        <ele>138.57</ele>
        <time>2016-03-07T13:40:40Z</time>
      </trkpt>
      <trkpt lat="43.83437" lon="4.29062">
        <ele>139.05</ele>
        <time>2016-03-07T13:40:53Z</time>
      </trkpt>
      <trkpt lat="43.83437" lon="4.29061">
        <ele>139.05</ele>
        <time>2016-03-07T13:41:10Z</time>
      </trkpt>
      <trkpt lat="43.8343" lon="4.29054">
        <ele>138.57</ele>
        <time>2016-03-07T13:41:19Z</time>
      </trkpt>
      <trkpt lat="43.83426" lon="4.29042">
        <ele>137.61</ele>
        <time>2016-03-07T13:41:30Z</time>
      </trkpt>
      <trkpt lat="43.83425" lon="4.29041">
        <ele>137.61</ele>
        <time>2016-03-07T13:41:31Z</time>
      </trkpt>
      <trkpt lat="43.83423" lon="4.29038">
        <ele>137.61</ele>
        <time>2016-03-07T13:41:35Z</time>
      </trkpt>
      <trkpt lat="43.83421" lon="4.29034">
        <ele>137.61</ele>
        <time>2016-03-07T13:41:38Z</time>
      </trkpt>
      <trkpt lat="43.83412" lon="4.29026">
        <ele>139.05</ele>
        <time>2016-03-07T13:41:50Z</time>
      </trkpt>
      <trkpt lat="43.83403" lon="4.29015">
        <ele>140.49</ele>
        <time>2016-03-07T13:42:02Z</time>
      </trkpt>
      <trkpt lat="43.83392" lon="4.29005">
        <ele>143.37</ele>
        <time>2016-03-07T13:42:14Z</time>
      </trkpt>
      <trkpt lat="43.83382" lon="4.28995">
        <ele>144.82</ele>
        <time>2016-03-07T13:42:25Z</time>
      </trkpt>
      <trkpt lat="43.83371" lon="4.28983">
        <ele>146.74</ele>
        <time>2016-03-07T13:42:36Z</time>
      </trkpt>
      <trkpt lat="43.83364" lon="4.28971">
        <ele>147.22</ele>
        <time>2016-03-07T13:42:47Z</time>
      </trkpt>
      <trkpt lat="43.83353" lon="4.28956">
        <ele>147.7</ele>
        <time>2016-03-07T13:42:59Z</time>
      </trkpt>
      <trkpt lat="43.8334" lon="4.28953">
        <ele>147.7</ele>
        <time>2016-03-07T13:43:10Z</time>
      </trkpt>
      <trkpt lat="43.83325" lon="4.28953">
        <ele>149.14</ele>
        <time>2016-03-07T13:43:21Z</time>
      </trkpt>
      <trkpt lat="43.83313" lon="4.28957">
        <ele>149.14</ele>
        <time>2016-03-07T13:43:32Z</time>
      </trkpt>
      <trkpt lat="43.833" lon="4.2896">
        <ele>148.18</ele>
        <time>2016-03-07T13:43:44Z</time>
      </trkpt>
      <trkpt lat="43.83286" lon="4.28963">
        <ele>147.22</ele>
        <time>2016-03-07T13:43:55Z</time>
      </trkpt>
      <trkpt lat="43.83273" lon="4.28963">
        <ele>146.74</ele>
        <time>2016-03-07T13:44:06Z</time>
      </trkpt>
      <trkpt lat="43.83258" lon="4.28963">
        <ele>146.74</ele>
        <time>2016-03-07T13:44:18Z</time>
      </trkpt>
      <trkpt lat="43.83245" lon="4.28963">
        <ele>145.3</ele>
        <time>2016-03-07T13:44:30Z</time>
      </trkpt>
      <trkpt lat="43.83235" lon="4.28967">
        <ele>144.34</ele>
        <time>2016-03-07T13:44:39Z</time>
      </trkpt>
      <trkpt lat="43.8322" lon="4.28969">
        <ele>143.85</ele>
        <time>2016-03-07T13:44:51Z</time>
      </trkpt>
      <trkpt lat="43.83204" lon="4.2897">
        <ele>144.82</ele>
        <time>2016-03-07T13:45:03Z</time>
      </trkpt>
      <trkpt lat="43.8319" lon="4.28971">
        <ele>145.3</ele>
        <time>2016-03-07T13:45:15Z</time>
      </trkpt>
      <trkpt lat="43.83176" lon="4.28968">
        <ele>145.78</ele>
        <time>2016-03-07T13:45:26Z</time>
      </trkpt>
      <trkpt lat="43.83174" lon="4.28968">
        <ele>145.78</ele>
        <time>2016-03-07T13:45:28Z</time>
      </trkpt>
      <trkpt lat="43.83169" lon="4.28967">
        <ele>145.3</ele>
        <time>2016-03-07T13:45:32Z</time>
      </trkpt>
      <trkpt lat="43.83154" lon="4.28963">
        <ele>144.34</ele>
        <time>2016-03-07T13:45:45Z</time>
      </trkpt>
      <trkpt lat="43.8314" lon="4.28961">
        <ele>144.34</ele>
        <time>2016-03-07T13:45:56Z</time>
      </trkpt>
      <trkpt lat="43.83124" lon="4.2896">
        <ele>144.82</ele>
        <time>2016-03-07T13:46:08Z</time>
      </trkpt>
      <trkpt lat="43.83112" lon="4.2896">
        <ele>143.37</ele>
        <time>2016-03-07T13:46:19Z</time>
      </trkpt>
      <trkpt lat="43.83098" lon="4.2896">
        <ele>141.45</ele>
        <time>2016-03-07T13:46:31Z</time>
      </trkpt>
      <trkpt lat="43.83086" lon="4.28962">
        <ele>140.01</ele>
        <time>2016-03-07T13:46:42Z</time>
      </trkpt>
      <trkpt lat="43.83071" lon="4.28964">
        <ele>140.97</ele>
        <time>2016-03-07T13:46:55Z</time>
      </trkpt>
      <trkpt lat="43.83059" lon="4.28968">
        <ele>140.97</ele>
        <time>2016-03-07T13:47:07Z</time>
      </trkpt>
      <trkpt lat="43.83047" lon="4.28973">
        <ele>138.57</ele>
        <time>2016-03-07T13:47:18Z</time>
      </trkpt>
      <trkpt lat="43.83036" lon="4.28977">
        <ele>137.61</ele>
        <time>2016-03-07T13:47:28Z</time>
      </trkpt>
      <trkpt lat="43.83024" lon="4.28982">
        <ele>136.64</ele>
        <time>2016-03-07T13:47:39Z</time>
      </trkpt>
      <trkpt lat="43.83011" lon="4.28987">
        <ele>135.2</ele>
        <time>2016-03-07T13:47:51Z</time>
      </trkpt>
      <trkpt lat="43.82999" lon="4.28991">
        <ele>134.72</ele>
        <time>2016-03-07T13:48:02Z</time>
      </trkpt>
      <trkpt lat="43.82988" lon="4.28995">
        <ele>135.2</ele>
        <time>2016-03-07T13:48:11Z</time>
      </trkpt>
      <trkpt lat="43.82978" lon="4.29001">
        <ele>135.2</ele>
        <time>2016-03-07T13:48:20Z</time>
      </trkpt>
      <trkpt lat="43.82962" lon="4.2901">
        <ele>134.72</ele>
        <time>2016-03-07T13:48:34Z</time>
      </trkpt>
      <trkpt lat="43.82948" lon="4.29011">
        <ele>134.72</ele>
        <time>2016-03-07T13:48:46Z</time>
      </trkpt>
      <trkpt lat="43.82934" lon="4.29014">
        <ele>134.72</ele>
        <time>2016-03-07T13:48:57Z</time>
      </trkpt>
      <trkpt lat="43.82922" lon="4.29018">
        <ele>134.72</ele>
        <time>2016-03-07T13:49:08Z</time>
      </trkpt>
      <trkpt lat="43.82909" lon="4.2902">
        <ele>135.2</ele>
        <time>2016-03-07T13:49:19Z</time>
      </trkpt>
      <trkpt lat="43.82894" lon="4.2902">
        <ele>134.72</ele>
        <time>2016-03-07T13:49:32Z</time>
      </trkpt>
      <trkpt lat="43.82881" lon="4.29017">
        <ele>133.76</ele>
        <time>2016-03-07T13:49:44Z</time>
      </trkpt>
      <trkpt lat="43.82867" lon="4.29012">
        <ele>133.76</ele>
        <time>2016-03-07T13:49:56Z</time>
      </trkpt>
      <trkpt lat="43.82855" lon="4.29012">
        <ele>134.72</ele>
        <time>2016-03-07T13:50:07Z</time>
      </trkpt>
      <trkpt lat="43.8284" lon="4.29011">
        <ele>133.28</ele>
        <time>2016-03-07T13:50:21Z</time>
      </trkpt>
      <trkpt lat="43.82836" lon="4.29012">
        <ele>133.28</ele>
        <time>2016-03-07T13:50:24Z</time>
      </trkpt>
      <trkpt lat="43.82833" lon="4.2901">
        <ele>132.8</ele>
        <time>2016-03-07T13:50:28Z</time>
      </trkpt>
      <trkpt lat="43.82824" lon="4.29009">
        <ele>131.84</ele>
        <time>2016-03-07T13:50:36Z</time>
      </trkpt>
      <trkpt lat="43.82812" lon="4.29008">
        <ele>130.4</ele>
        <time>2016-03-07T13:50:49Z</time>
      </trkpt>
      <trkpt lat="43.828" lon="4.29007">
        <ele>127.99</ele>
        <time>2016-03-07T13:51:03Z</time>
      </trkpt>
      <trkpt lat="43.82788" lon="4.29007">
        <ele>128.95</ele>
        <time>2016-03-07T13:51:16Z</time>
      </trkpt>
      <trkpt lat="43.82774" lon="4.29012">
        <ele>127.99</ele>
        <time>2016-03-07T13:51:28Z</time>
      </trkpt>
      <trkpt lat="43.82763" lon="4.29016">
        <ele>127.03</ele>
        <time>2016-03-07T13:51:40Z</time>
      </trkpt>
      <trkpt lat="43.82751" lon="4.2902">
        <ele>125.59</ele>
        <time>2016-03-07T13:51:51Z</time>
      </trkpt>
      <trkpt lat="43.82736" lon="4.29025">
        <ele>123.67</ele>
        <time>2016-03-07T13:52:04Z</time>
      </trkpt>
      <trkpt lat="43.82724" lon="4.29029">
        <ele>122.22</ele>
        <time>2016-03-07T13:52:17Z</time>
      </trkpt>
      <trkpt lat="43.8271" lon="4.29037">
        <ele>120.78</ele>
        <time>2016-03-07T13:52:30Z</time>
      </trkpt>
      <trkpt lat="43.82697" lon="4.29044">
        <ele>119.34</ele>
        <time>2016-03-07T13:52:42Z</time>
      </trkpt>
      <trkpt lat="43.82693" lon="4.29044">
        <ele>118.38</ele>
        <time>2016-03-07T13:52:46Z</time>
      </trkpt>
      <trkpt lat="43.82688" lon="4.29047">
        <ele>116.94</ele>
        <time>2016-03-07T13:52:52Z</time>
      </trkpt>
      <trkpt lat="43.82671" lon="4.29061">
        <ele>115.01</ele>
        <time>2016-03-07T13:53:08Z</time>
      </trkpt>
      <trkpt lat="43.82666" lon="4.29065">
        <ele>115.01</ele>
        <time>2016-03-07T13:53:14Z</time>
      </trkpt>
      <trkpt lat="43.82657" lon="4.29072">
        <ele>111.65</ele>
        <time>2016-03-07T13:53:24Z</time>
      </trkpt>
      <trkpt lat="43.82644" lon="4.29075">
        <ele>107.32</ele>
        <time>2016-03-07T13:53:38Z</time>
      </trkpt>
      <trkpt lat="43.82632" lon="4.29076">
        <ele>107.32</ele>
        <time>2016-03-07T13:53:49Z</time>
      </trkpt>
      <trkpt lat="43.82623" lon="4.29079">
        <ele>107.32</ele>
        <time>2016-03-07T13:53:58Z</time>
      </trkpt>
      <trkpt lat="43.82607" lon="4.29087">
        <ele>106.84</ele>
        <time>2016-03-07T13:54:15Z</time>
      </trkpt>
      <trkpt lat="43.82599" lon="4.29095">
        <ele>107.81</ele>
        <time>2016-03-07T13:54:23Z</time>
      </trkpt>
      <trkpt lat="43.82594" lon="4.291">
        <ele>107.32</ele>
        <time>2016-03-07T13:54:31Z</time>
      </trkpt>
      <trkpt lat="43.8258" lon="4.29115">
        <ele>106.84</ele>
        <time>2016-03-07T13:54:45Z</time>
      </trkpt>
      <trkpt lat="43.82568" lon="4.29122">
        <ele>104.44</ele>
        <time>2016-03-07T13:54:58Z</time>
      </trkpt>
      <trkpt lat="43.82553" lon="4.29126">
        <ele>103</ele>
        <time>2016-03-07T13:55:11Z</time>
      </trkpt>
      <trkpt lat="43.82541" lon="4.29131">
        <ele>103.96</ele>
        <time>2016-03-07T13:55:22Z</time>
      </trkpt>
      <trkpt lat="43.82531" lon="4.2913">
        <ele>103</ele>
        <time>2016-03-07T13:55:33Z</time>
      </trkpt>
      <trkpt lat="43.8253" lon="4.29128">
        <ele>103</ele>
        <time>2016-03-07T13:55:35Z</time>
      </trkpt>
      <trkpt lat="43.82528" lon="4.29118">
        <ele>103.96</ele>
        <time>2016-03-07T13:55:43Z</time>
      </trkpt>
      <trkpt lat="43.82525" lon="4.29105">
        <ele>102.52</ele>
        <time>2016-03-07T13:55:56Z</time>
      </trkpt>
      <trkpt lat="43.82527" lon="4.29101">
        <ele>100.6</ele>
        <time>2016-03-07T13:56:10Z</time>
      </trkpt>
      <trkpt lat="43.82527" lon="4.29097">
        <ele>102.04</ele>
        <time>2016-03-07T13:56:28Z</time>
      </trkpt>
      <trkpt lat="43.82529" lon="4.29092">
        <ele>102.04</ele>
        <time>2016-03-07T13:56:37Z</time>
      </trkpt>
      <trkpt lat="43.82525" lon="4.29087">
        <ele>100.6</ele>
        <time>2016-03-07T13:56:45Z</time>
      </trkpt>
      <trkpt lat="43.82515" lon="4.29091">
        <ele>102.52</ele>
        <time>2016-03-07T13:56:57Z</time>
      </trkpt>
      <trkpt lat="43.82513" lon="4.2909">
        <ele>102.04</ele>
        <time>2016-03-07T13:57:00Z</time>
      </trkpt>
      <trkpt lat="43.82503" lon="4.29092">
        <ele>101.56</ele>
        <time>2016-03-07T13:57:12Z</time>
      </trkpt>
      <trkpt lat="43.82497" lon="4.29091">
        <ele>101.56</ele>
        <time>2016-03-07T13:57:20Z</time>
      </trkpt>
      <trkpt lat="43.8249" lon="4.29096">
        <ele>101.08</ele>
        <time>2016-03-07T13:57:34Z</time>
      </trkpt>
      <trkpt lat="43.82488" lon="4.29099">
        <ele>101.08</ele>
        <time>2016-03-07T13:57:39Z</time>
      </trkpt>
      <trkpt lat="43.82479" lon="4.29103">
        <ele>99.63</ele>
        <time>2016-03-07T13:57:51Z</time>
      </trkpt>
      <trkpt lat="43.82472" lon="4.29102">
        <ele>98.19</ele>
        <time>2016-03-07T13:58:04Z</time>
      </trkpt>
      <trkpt lat="43.8247" lon="4.29101">
        <ele>97.71</ele>
        <time>2016-03-07T13:58:06Z</time>
      </trkpt>
      <trkpt lat="43.82466" lon="4.29098">
        <ele>97.71</ele>
        <time>2016-03-07T13:58:18Z</time>
      </trkpt>
      <trkpt lat="43.82468" lon="4.291">
        <ele>98.67</ele>
        <time>2016-03-07T13:58:43Z</time>
      </trkpt>
      <trkpt lat="43.82467" lon="4.291">
        <ele>94.83</ele>
        <time>2016-03-07T13:59:04Z</time>
      </trkpt>
      <trkpt lat="43.82472" lon="4.29102">
        <ele>94.35</ele>
        <time>2016-03-07T13:59:24Z</time>
      </trkpt>
      <trkpt lat="43.82473" lon="4.29106">
        <ele>93.39</ele>
        <time>2016-03-07T13:59:38Z</time>
      </trkpt>
      <trkpt lat="43.82471" lon="4.29109">
        <ele>94.83</ele>
        <time>2016-03-07T14:00:05Z</time>
      </trkpt>
      <trkpt lat="43.82467" lon="4.29107">
        <ele>95.79</ele>
        <time>2016-03-07T14:00:37Z</time>
      </trkpt>
      <trkpt lat="43.82469" lon="4.2911">
        <ele>96.27</ele>
        <time>2016-03-07T14:01:04Z</time>
      </trkpt>
      <trkpt lat="43.82469" lon="4.29107">
        <ele>98.19</ele>
        <time>2016-03-07T14:01:30Z</time>
      </trkpt>
      <trkpt lat="43.82468" lon="4.2911">
        <ele>101.56</ele>
        <time>2016-03-07T14:01:51Z</time>
      </trkpt>
      <trkpt lat="43.82468" lon="4.29112">
        <ele>99.15</ele>
        <time>2016-03-07T14:02:19Z</time>
      </trkpt>
      <trkpt lat="43.8247" lon="4.29114">
        <ele>102.52</ele>
        <time>2016-03-07T14:02:47Z</time>
      </trkpt>
      <trkpt lat="43.82471" lon="4.29114">
        <ele>103.48</ele>
        <time>2016-03-07T14:03:13Z</time>
      </trkpt>
      <trkpt lat="43.82471" lon="4.29112">
        <ele>103.96</ele>
        <time>2016-03-07T14:03:31Z</time>
      </trkpt>
      <trkpt lat="43.8247" lon="4.29108">
        <ele>106.36</ele>
        <time>2016-03-07T14:04:05Z</time>
      </trkpt>
      <trkpt lat="43.82469" lon="4.29109">
        <ele>103.96</ele>
        <time>2016-03-07T14:04:34Z</time>
      </trkpt>
      <trkpt lat="43.82472" lon="4.29109">
        <ele>102.04</ele>
        <time>2016-03-07T14:05:03Z</time>
      </trkpt>
      <trkpt lat="43.82473" lon="4.29108">
        <ele>99.15</ele>
        <time>2016-03-07T14:05:27Z</time>
      </trkpt>
      <trkpt lat="43.82475" lon="4.29109">
        <ele>103</ele>
        <time>2016-03-07T14:05:54Z</time>
      </trkpt>
      <trkpt lat="43.82474" lon="4.29109">
        <ele>102.04</ele>
        <time>2016-03-07T14:06:19Z</time>
      </trkpt>
      <trkpt lat="43.82475" lon="4.29109">
        <ele>104.92</ele>
        <time>2016-03-07T14:06:43Z</time>
      </trkpt>
      <trkpt lat="43.82476" lon="4.29108">
        <ele>103.96</ele>
        <time>2016-03-07T14:07:13Z</time>
      </trkpt>
      <trkpt lat="43.82472" lon="4.29109">
        <ele>104.44</ele>
        <time>2016-03-07T14:07:44Z</time>
      </trkpt>
      <trkpt lat="43.82473" lon="4.29107">
        <ele>99.63</ele>
        <time>2016-03-07T14:08:09Z</time>
      </trkpt>
      <trkpt lat="43.82473" lon="4.2911">
        <ele>96.75</ele>
        <time>2016-03-07T14:08:38Z</time>
      </trkpt>
      <trkpt lat="43.82473" lon="4.29113">
        <ele>97.23</ele>
        <time>2016-03-07T14:09:07Z</time>
      </trkpt>
      <trkpt lat="43.82471" lon="4.29111">
        <ele>99.63</ele>
        <time>2016-03-07T14:09:39Z</time>
      </trkpt>
      <trkpt lat="43.82468" lon="4.29106">
        <ele>98.19</ele>
        <time>2016-03-07T14:10:05Z</time>
      </trkpt>
      <trkpt lat="43.82465" lon="4.29102">
        <ele>96.27</ele>
        <time>2016-03-07T14:10:13Z</time>
      </trkpt>
      <trkpt lat="43.82457" lon="4.29099">
        <ele>93.87</ele>
        <time>2016-03-07T14:10:26Z</time>
      </trkpt>
      <trkpt lat="43.82456" lon="4.29095">
        <ele>94.35</ele>
        <time>2016-03-07T14:10:56Z</time>
      </trkpt>
      <trkpt lat="43.82458" lon="4.29099">
        <ele>94.83</ele>
        <time>2016-03-07T14:11:28Z</time>
      </trkpt>
      <trkpt lat="43.82469" lon="4.29104">
        <ele>95.79</ele>
        <time>2016-03-07T14:11:39Z</time>
      </trkpt>
      <trkpt lat="43.82482" lon="4.29107">
        <ele>96.75</ele>
        <time>2016-03-07T14:11:49Z</time>
      </trkpt>
      <trkpt lat="43.82492" lon="4.29103">
        <ele>97.23</ele>
        <time>2016-03-07T14:12:00Z</time>
      </trkpt>
      <trkpt lat="43.82504" lon="4.29098">
        <ele>97.71</ele>
        <time>2016-03-07T14:12:11Z</time>
      </trkpt>
      <trkpt lat="43.82505" lon="4.29099">
        <ele>97.71</ele>
        <time>2016-03-07T14:12:13Z</time>
      </trkpt>
      <trkpt lat="43.82511" lon="4.29097">
        <ele>98.19</ele>
        <time>2016-03-07T14:12:18Z</time>
      </trkpt>
      <trkpt lat="43.82513" lon="4.29095">
        <ele>97.71</ele>
        <time>2016-03-07T14:12:20Z</time>
      </trkpt>
      <trkpt lat="43.82518" lon="4.29094">
        <ele>98.19</ele>
        <time>2016-03-07T14:12:25Z</time>
      </trkpt>
      <trkpt lat="43.82524" lon="4.29089">
        <ele>98.19</ele>
        <time>2016-03-07T14:12:31Z</time>
      </trkpt>
      <trkpt lat="43.82526" lon="4.29089">
        <ele>98.19</ele>
        <time>2016-03-07T14:12:33Z</time>
      </trkpt>
      <trkpt lat="43.82528" lon="4.29094">
        <ele>97.71</ele>
        <time>2016-03-07T14:12:41Z</time>
      </trkpt>
      <trkpt lat="43.82524" lon="4.29103">
        <ele>100.11</ele>
        <time>2016-03-07T14:12:48Z</time>
      </trkpt>
      <trkpt lat="43.82527" lon="4.29125">
        <ele>100.6</ele>
        <time>2016-03-07T14:13:01Z</time>
      </trkpt>
      <trkpt lat="43.82528" lon="4.29126">
        <ele>101.08</ele>
        <time>2016-03-07T14:13:02Z</time>
      </trkpt>
      <trkpt lat="43.82544" lon="4.2913">
        <ele>100.6</ele>
        <time>2016-03-07T14:13:14Z</time>
      </trkpt>
      <trkpt lat="43.82557" lon="4.29126">
        <ele>102.52</ele>
        <time>2016-03-07T14:13:24Z</time>
      </trkpt>
      <trkpt lat="43.82568" lon="4.29125">
        <ele>104.44</ele>
        <time>2016-03-07T14:13:33Z</time>
      </trkpt>
      <trkpt lat="43.82577" lon="4.2912">
        <ele>105.88</ele>
        <time>2016-03-07T14:13:40Z</time>
      </trkpt>
      <trkpt lat="43.82589" lon="4.29113">
        <ele>107.32</ele>
        <time>2016-03-07T14:13:55Z</time>
      </trkpt>
      <trkpt lat="43.82595" lon="4.29106">
        <ele>108.29</ele>
        <time>2016-03-07T14:14:00Z</time>
      </trkpt>
      <trkpt lat="43.82606" lon="4.29094">
        <ele>110.69</ele>
        <time>2016-03-07T14:14:12Z</time>
      </trkpt>
      <trkpt lat="43.82616" lon="4.29087">
        <ele>111.17</ele>
        <time>2016-03-07T14:14:22Z</time>
      </trkpt>
      <trkpt lat="43.82627" lon="4.29084">
        <ele>112.61</ele>
        <time>2016-03-07T14:14:33Z</time>
      </trkpt>
      <trkpt lat="43.82636" lon="4.29084">
        <ele>114.05</ele>
        <time>2016-03-07T14:14:43Z</time>
      </trkpt>
      <trkpt lat="43.8265" lon="4.29083">
        <ele>113.09</ele>
        <time>2016-03-07T14:14:54Z</time>
      </trkpt>
      <trkpt lat="43.82656" lon="4.29082">
        <ele>114.05</ele>
        <time>2016-03-07T14:15:00Z</time>
      </trkpt>
      <trkpt lat="43.82664" lon="4.29076">
        <ele>114.53</ele>
        <time>2016-03-07T14:15:07Z</time>
      </trkpt>
      <trkpt lat="43.82668" lon="4.29074">
        <ele>114.53</ele>
        <time>2016-03-07T14:15:11Z</time>
      </trkpt>
      <trkpt lat="43.82679" lon="4.29066">
        <ele>114.53</ele>
        <time>2016-03-07T14:15:23Z</time>
      </trkpt>
      <trkpt lat="43.82689" lon="4.29057">
        <ele>117.9</ele>
        <time>2016-03-07T14:15:34Z</time>
      </trkpt>
      <trkpt lat="43.82696" lon="4.29052">
        <ele>117.9</ele>
        <time>2016-03-07T14:15:42Z</time>
      </trkpt>
      <trkpt lat="43.82708" lon="4.29049">
        <ele>118.38</ele>
        <time>2016-03-07T14:15:53Z</time>
      </trkpt>
      <trkpt lat="43.82717" lon="4.29044">
        <ele>120.78</ele>
        <time>2016-03-07T14:16:02Z</time>
      </trkpt>
      <trkpt lat="43.82727" lon="4.29041">
        <ele>122.71</ele>
        <time>2016-03-07T14:16:11Z</time>
      </trkpt>
      <trkpt lat="43.82738" lon="4.29038">
        <ele>124.63</ele>
        <time>2016-03-07T14:16:22Z</time>
      </trkpt>
      <trkpt lat="43.82748" lon="4.29035">
        <ele>126.07</ele>
        <time>2016-03-07T14:16:33Z</time>
      </trkpt>
      <trkpt lat="43.82759" lon="4.2903">
        <ele>127.03</ele>
        <time>2016-03-07T14:16:44Z</time>
      </trkpt>
      <trkpt lat="43.82771" lon="4.29026">
        <ele>127.99</ele>
        <time>2016-03-07T14:16:55Z</time>
      </trkpt>
      <trkpt lat="43.82779" lon="4.29023">
        <ele>129.43</ele>
        <time>2016-03-07T14:17:04Z</time>
      </trkpt>
      <trkpt lat="43.82787" lon="4.29019">
        <ele>130.88</ele>
        <time>2016-03-07T14:17:14Z</time>
      </trkpt>
      <trkpt lat="43.82796" lon="4.29016">
        <ele>131.84</ele>
        <time>2016-03-07T14:17:25Z</time>
      </trkpt>
      <trkpt lat="43.82807" lon="4.29014">
        <ele>133.28</ele>
        <time>2016-03-07T14:17:38Z</time>
      </trkpt>
      <trkpt lat="43.82816" lon="4.29015">
        <ele>134.72</ele>
        <time>2016-03-07T14:17:49Z</time>
      </trkpt>
      <trkpt lat="43.82825" lon="4.29016">
        <ele>135.68</ele>
        <time>2016-03-07T14:18:01Z</time>
      </trkpt>
      <trkpt lat="43.82834" lon="4.29016">
        <ele>133.76</ele>
        <time>2016-03-07T14:18:12Z</time>
      </trkpt>
      <trkpt lat="43.82837" lon="4.29016">
        <ele>133.28</ele>
        <time>2016-03-07T14:18:16Z</time>
      </trkpt>
      <trkpt lat="43.8285" lon="4.29014">
        <ele>132.8</ele>
        <time>2016-03-07T14:18:27Z</time>
      </trkpt>
      <trkpt lat="43.82861" lon="4.29015">
        <ele>133.28</ele>
        <time>2016-03-07T14:18:38Z</time>
      </trkpt>
      <trkpt lat="43.82871" lon="4.29018">
        <ele>134.24</ele>
        <time>2016-03-07T14:18:48Z</time>
      </trkpt>
      <trkpt lat="43.82883" lon="4.29023">
        <ele>134.72</ele>
        <time>2016-03-07T14:18:59Z</time>
      </trkpt>
      <trkpt lat="43.82889" lon="4.29026">
        <ele>135.2</ele>
        <time>2016-03-07T14:19:04Z</time>
      </trkpt>
      <trkpt lat="43.82901" lon="4.29028">
        <ele>135.68</ele>
        <time>2016-03-07T14:19:15Z</time>
      </trkpt>
      <trkpt lat="43.82903" lon="4.29027">
        <ele>135.68</ele>
        <time>2016-03-07T14:19:17Z</time>
      </trkpt>
      <trkpt lat="43.82908" lon="4.29026">
        <ele>135.2</ele>
        <time>2016-03-07T14:19:22Z</time>
      </trkpt>
      <trkpt lat="43.8292" lon="4.29023">
        <ele>136.16</ele>
        <time>2016-03-07T14:19:33Z</time>
      </trkpt>
      <trkpt lat="43.82933" lon="4.29017">
        <ele>136.64</ele>
        <time>2016-03-07T14:19:45Z</time>
      </trkpt>
      <trkpt lat="43.82944" lon="4.29013">
        <ele>135.2</ele>
        <time>2016-03-07T14:19:56Z</time>
      </trkpt>
      <trkpt lat="43.82956" lon="4.29009">
        <ele>133.76</ele>
        <time>2016-03-07T14:20:07Z</time>
      </trkpt>
      <trkpt lat="43.8296" lon="4.2901">
        <ele>133.76</ele>
        <time>2016-03-07T14:20:11Z</time>
      </trkpt>
      <trkpt lat="43.82971" lon="4.29008">
        <ele>134.24</ele>
        <time>2016-03-07T14:20:22Z</time>
      </trkpt>
      <trkpt lat="43.8298" lon="4.29001">
        <ele>135.2</ele>
        <time>2016-03-07T14:20:34Z</time>
      </trkpt>
      <trkpt lat="43.82981" lon="4.29001">
        <ele>134.24</ele>
        <time>2016-03-07T14:21:02Z</time>
      </trkpt>
      <trkpt lat="43.82984" lon="4.28998">
        <ele>135.2</ele>
        <time>2016-03-07T14:21:15Z</time>
      </trkpt>
      <trkpt lat="43.82987" lon="4.28997">
        <ele>135.2</ele>
        <time>2016-03-07T14:21:25Z</time>
      </trkpt>
      <trkpt lat="43.82987" lon="4.28993">
        <ele>134.72</ele>
        <time>2016-03-07T14:21:28Z</time>
      </trkpt>
      <trkpt lat="43.82987" lon="4.2899">
        <ele>134.72</ele>
        <time>2016-03-07T14:21:31Z</time>
      </trkpt>
      <trkpt lat="43.82987" lon="4.28977">
        <ele>132.8</ele>
        <time>2016-03-07T14:21:42Z</time>
      </trkpt>
      <trkpt lat="43.82986" lon="4.28964">
        <ele>131.84</ele>
        <time>2016-03-07T14:21:53Z</time>
      </trkpt>
      <trkpt lat="43.82988" lon="4.28951">
        <ele>131.36</ele>
        <time>2016-03-07T14:22:04Z</time>
      </trkpt>
      <trkpt lat="43.82989" lon="4.28942">
        <ele>129.92</ele>
        <time>2016-03-07T14:22:13Z</time>
      </trkpt>
      <trkpt lat="43.82988" lon="4.28935">
        <ele>127.99</ele>
        <time>2016-03-07T14:22:19Z</time>
      </trkpt>
      <trkpt lat="43.82985" lon="4.28924">
        <ele>127.03</ele>
        <time>2016-03-07T14:22:31Z</time>
      </trkpt>
      <trkpt lat="43.82985" lon="4.28912">
        <ele>125.11</ele>
        <time>2016-03-07T14:22:44Z</time>
      </trkpt>
      <trkpt lat="43.82988" lon="4.28902">
        <ele>123.67</ele>
        <time>2016-03-07T14:22:58Z</time>
      </trkpt>
      <trkpt lat="43.82992" lon="4.28891">
        <ele>123.67</ele>
        <time>2016-03-07T14:23:13Z</time>
      </trkpt>
      <trkpt lat="43.82993" lon="4.28882">
        <ele>122.22</ele>
        <time>2016-03-07T14:23:30Z</time>
      </trkpt>
      <trkpt lat="43.82991" lon="4.28874">
        <ele>119.82</ele>
        <time>2016-03-07T14:23:42Z</time>
      </trkpt>
      <trkpt lat="43.82991" lon="4.28867">
        <ele>117.9</ele>
        <time>2016-03-07T14:23:59Z</time>
      </trkpt>
      <trkpt lat="43.82991" lon="4.28858">
        <ele>115.01</ele>
        <time>2016-03-07T14:24:15Z</time>
      </trkpt>
      <trkpt lat="43.82987" lon="4.2885">
        <ele>112.61</ele>
        <time>2016-03-07T14:24:30Z</time>
      </trkpt>
      <trkpt lat="43.82983" lon="4.28842">
        <ele>109.73</ele>
        <time>2016-03-07T14:24:45Z</time>
      </trkpt>
      <trkpt lat="43.82984" lon="4.28834">
        <ele>107.81</ele>
        <time>2016-03-07T14:25:01Z</time>
      </trkpt>
      <trkpt lat="43.82986" lon="4.28822">
        <ele>104.92</ele>
        <time>2016-03-07T14:25:18Z</time>
      </trkpt>
      <trkpt lat="43.82989" lon="4.28811">
        <ele>101.56</ele>
        <time>2016-03-07T14:25:31Z</time>
      </trkpt>
      <trkpt lat="43.82988" lon="4.28806">
        <ele>100.11</ele>
        <time>2016-03-07T14:25:44Z</time>
      </trkpt>
      <trkpt lat="43.82988" lon="4.28803">
        <ele>100.6</ele>
        <time>2016-03-07T14:25:50Z</time>
      </trkpt>
      <trkpt lat="43.83" lon="4.2879">
        <ele>103</ele>
        <time>2016-03-07T14:26:03Z</time>
      </trkpt>
      <trkpt lat="43.83013" lon="4.28776">
        <ele>104.44</ele>
        <time>2016-03-07T14:26:16Z</time>
      </trkpt>
      <trkpt lat="43.83022" lon="4.28765">
        <ele>104.92</ele>
        <time>2016-03-07T14:26:27Z</time>
      </trkpt>
      <trkpt lat="43.83031" lon="4.28757">
        <ele>105.4</ele>
        <time>2016-03-07T14:26:36Z</time>
      </trkpt>
      <trkpt lat="43.83043" lon="4.28746">
        <ele>106.36</ele>
        <time>2016-03-07T14:26:47Z</time>
      </trkpt>
      <trkpt lat="43.83052" lon="4.28734">
        <ele>107.81</ele>
        <time>2016-03-07T14:26:57Z</time>
      </trkpt>
      <trkpt lat="43.83054" lon="4.28731">
        <ele>108.29</ele>
        <time>2016-03-07T14:27:00Z</time>
      </trkpt>
      <trkpt lat="43.83059" lon="4.28727">
        <ele>108.29</ele>
        <time>2016-03-07T14:27:04Z</time>
      </trkpt>
      <trkpt lat="43.83069" lon="4.2872">
        <ele>110.21</ele>
        <time>2016-03-07T14:27:16Z</time>
      </trkpt>
      <trkpt lat="43.83082" lon="4.28716">
        <ele>110.69</ele>
        <time>2016-03-07T14:27:30Z</time>
      </trkpt>
      <trkpt lat="43.83094" lon="4.28702">
        <ele>110.21</ele>
        <time>2016-03-07T14:27:43Z</time>
      </trkpt>
      <trkpt lat="43.83098" lon="4.287">
        <ele>109.25</ele>
        <time>2016-03-07T14:27:47Z</time>
      </trkpt>
      <trkpt lat="43.83113" lon="4.28696">
        <ele>109.25</ele>
        <time>2016-03-07T14:28:00Z</time>
      </trkpt>
      <trkpt lat="43.83125" lon="4.2869">
        <ele>109.73</ele>
        <time>2016-03-07T14:28:11Z</time>
      </trkpt>
      <trkpt lat="43.8313" lon="4.28685">
        <ele>109.73</ele>
        <time>2016-03-07T14:28:18Z</time>
      </trkpt>
      <trkpt lat="43.83135" lon="4.28671">
        <ele>111.17</ele>
        <time>2016-03-07T14:28:28Z</time>
      </trkpt>
      <trkpt lat="43.83135" lon="4.28669">
        <ele>112.13</ele>
        <time>2016-03-07T14:28:30Z</time>
      </trkpt>
      <trkpt lat="43.83137" lon="4.28663">
        <ele>112.61</ele>
        <time>2016-03-07T14:28:34Z</time>
      </trkpt>
      <trkpt lat="43.83138" lon="4.28655">
        <ele>113.09</ele>
        <time>2016-03-07T14:28:41Z</time>
      </trkpt>
      <trkpt lat="43.83143" lon="4.2864">
        <ele>114.53</ele>
        <time>2016-03-07T14:28:53Z</time>
      </trkpt>
      <trkpt lat="43.83144" lon="4.28638">
        <ele>115.01</ele>
        <time>2016-03-07T14:28:55Z</time>
      </trkpt>
      <trkpt lat="43.83144" lon="4.28624">
        <ele>115.5</ele>
        <time>2016-03-07T14:29:07Z</time>
      </trkpt>
      <trkpt lat="43.83143" lon="4.28614">
        <ele>118.38</ele>
        <time>2016-03-07T14:29:19Z</time>
      </trkpt>
      <trkpt lat="43.83144" lon="4.28604">
        <ele>121.74</ele>
        <time>2016-03-07T14:29:29Z</time>
      </trkpt>
      <trkpt lat="43.83145" lon="4.28598">
        <ele>125.59</ele>
        <time>2016-03-07T14:29:40Z</time>
      </trkpt>
      <trkpt lat="43.83147" lon="4.28593">
        <ele>127.03</ele>
        <time>2016-03-07T14:29:44Z</time>
      </trkpt>
      <trkpt lat="43.83146" lon="4.2859">
        <ele>127.51</ele>
        <time>2016-03-07T14:29:46Z</time>
      </trkpt>
      <trkpt lat="43.83149" lon="4.28581">
        <ele>128.95</ele>
        <time>2016-03-07T14:29:58Z</time>
      </trkpt>
      <trkpt lat="43.83147" lon="4.28577">
        <ele>128.95</ele>
        <time>2016-03-07T14:30:18Z</time>
      </trkpt>
      <trkpt lat="43.83148" lon="4.28569">
        <ele>128.95</ele>
        <time>2016-03-07T14:30:29Z</time>
      </trkpt>
      <trkpt lat="43.83147" lon="4.2856">
        <ele>129.92</ele>
        <time>2016-03-07T14:30:38Z</time>
      </trkpt>
      <trkpt lat="43.83147" lon="4.28549">
        <ele>130.4</ele>
        <time>2016-03-07T14:30:50Z</time>
      </trkpt>
      <trkpt lat="43.83146" lon="4.28535">
        <ele>131.36</ele>
        <time>2016-03-07T14:31:01Z</time>
      </trkpt>
      <trkpt lat="43.83145" lon="4.28533">
        <ele>131.84</ele>
        <time>2016-03-07T14:31:03Z</time>
      </trkpt>
      <trkpt lat="43.83147" lon="4.2852">
        <ele>132.8</ele>
        <time>2016-03-07T14:31:14Z</time>
      </trkpt>
      <trkpt lat="43.8315" lon="4.28511">
        <ele>132.8</ele>
        <time>2016-03-07T14:31:24Z</time>
      </trkpt>
      <trkpt lat="43.83152" lon="4.28508">
        <ele>132.8</ele>
        <time>2016-03-07T14:31:38Z</time>
      </trkpt>
      <trkpt lat="43.83151" lon="4.28509">
        <ele>135.2</ele>
        <time>2016-03-07T14:32:06Z</time>
      </trkpt>
      <trkpt lat="43.83151" lon="4.28512">
        <ele>137.61</ele>
        <time>2016-03-07T14:32:37Z</time>
      </trkpt>
      <trkpt lat="43.83153" lon="4.28511">
        <ele>139.53</ele>
        <time>2016-03-07T14:33:01Z</time>
      </trkpt>
      <trkpt lat="43.83153" lon="4.28512">
        <ele>138.57</ele>
        <time>2016-03-07T14:33:17Z</time>
      </trkpt>
      <trkpt lat="43.83152" lon="4.28513">
        <ele>136.64</ele>
        <time>2016-03-07T14:33:49Z</time>
      </trkpt>
      <trkpt lat="43.83153" lon="4.28507">
        <ele>138.57</ele>
        <time>2016-03-07T14:34:08Z</time>
      </trkpt>
      <trkpt lat="43.83152" lon="4.28496">
        <ele>140.49</ele>
        <time>2016-03-07T14:34:23Z</time>
      </trkpt>
      <trkpt lat="43.83152" lon="4.28486">
        <ele>140.01</ele>
        <time>2016-03-07T14:34:34Z</time>
      </trkpt>
      <trkpt lat="43.83152" lon="4.28482">
        <ele>139.05</ele>
        <time>2016-03-07T14:34:47Z</time>
      </trkpt>
      <trkpt lat="43.83144" lon="4.28476">
        <ele>136.16</ele>
        <time>2016-03-07T14:34:58Z</time>
      </trkpt>
      <trkpt lat="43.83134" lon="4.28461">
        <ele>130.88</ele>
        <time>2016-03-07T14:35:14Z</time>
      </trkpt>
      <trkpt lat="43.83129" lon="4.28453">
        <ele>128.95</ele>
        <time>2016-03-07T14:35:27Z</time>
      </trkpt>
      <trkpt lat="43.83123" lon="4.28441">
        <ele>128.47</ele>
        <time>2016-03-07T14:35:40Z</time>
      </trkpt>
      <trkpt lat="43.83122" lon="4.28433">
        <ele>127.03</ele>
        <time>2016-03-07T14:35:47Z</time>
      </trkpt>
      <trkpt lat="43.83122" lon="4.28416">
        <ele>127.03</ele>
        <time>2016-03-07T14:35:59Z</time>
      </trkpt>
      <trkpt lat="43.83125" lon="4.28402">
        <ele>125.11</ele>
        <time>2016-03-07T14:36:13Z</time>
      </trkpt>
      <trkpt lat="43.83118" lon="4.2839">
        <ele>123.67</ele>
        <time>2016-03-07T14:36:27Z</time>
      </trkpt>
      <trkpt lat="43.83114" lon="4.2838">
        <ele>121.74</ele>
        <time>2016-03-07T14:36:40Z</time>
      </trkpt>
      <trkpt lat="43.83107" lon="4.28375">
        <ele>118.86</ele>
        <time>2016-03-07T14:36:53Z</time>
      </trkpt>
      <trkpt lat="43.831" lon="4.2837">
        <ele>117.42</ele>
        <time>2016-03-07T14:37:06Z</time>
      </trkpt>
      <trkpt lat="43.8309" lon="4.28361">
        <ele>115.01</ele>
        <time>2016-03-07T14:37:20Z</time>
      </trkpt>
      <trkpt lat="43.83084" lon="4.28352">
        <ele>114.53</ele>
        <time>2016-03-07T14:37:34Z</time>
      </trkpt>
      <trkpt lat="43.83074" lon="4.28349">
        <ele>114.53</ele>
        <time>2016-03-07T14:37:47Z</time>
      </trkpt>
      <trkpt lat="43.83071" lon="4.28348">
        <ele>114.05</ele>
        <time>2016-03-07T14:37:51Z</time>
      </trkpt>
      <trkpt lat="43.83059" lon="4.28347">
        <ele>115.01</ele>
        <time>2016-03-07T14:38:04Z</time>
      </trkpt>
      <trkpt lat="43.83053" lon="4.28345">
        <ele>114.53</ele>
        <time>2016-03-07T14:38:10Z</time>
      </trkpt>
      <trkpt lat="43.83046" lon="4.28345">
        <ele>114.53</ele>
        <time>2016-03-07T14:38:18Z</time>
      </trkpt>
      <trkpt lat="43.83043" lon="4.28346">
        <ele>113.57</ele>
        <time>2016-03-07T14:38:21Z</time>
      </trkpt>
      <trkpt lat="43.8303" lon="4.28345">
        <ele>111.65</ele>
        <time>2016-03-07T14:38:34Z</time>
      </trkpt>
      <trkpt lat="43.83026" lon="4.28343">
        <ele>111.17</ele>
        <time>2016-03-07T14:38:46Z</time>
      </trkpt>
      <trkpt lat="43.83025" lon="4.28347">
        <ele>111.17</ele>
        <time>2016-03-07T14:38:58Z</time>
      </trkpt>
      <trkpt lat="43.83011" lon="4.28347">
        <ele>109.25</ele>
        <time>2016-03-07T14:39:11Z</time>
      </trkpt>
      <trkpt lat="43.82998" lon="4.2834">
        <ele>109.25</ele>
        <time>2016-03-07T14:39:23Z</time>
      </trkpt>
      <trkpt lat="43.82986" lon="4.28333">
        <ele>110.21</ele>
        <time>2016-03-07T14:39:34Z</time>
      </trkpt>
      <trkpt lat="43.82973" lon="4.28325">
        <ele>110.21</ele>
        <time>2016-03-07T14:39:46Z</time>
      </trkpt>
      <trkpt lat="43.82968" lon="4.28322">
        <ele>110.21</ele>
        <time>2016-03-07T14:39:52Z</time>
      </trkpt>
      <trkpt lat="43.82962" lon="4.28319">
        <ele>109.25</ele>
        <time>2016-03-07T14:39:56Z</time>
      </trkpt>
      <trkpt lat="43.82948" lon="4.28315">
        <ele>107.32</ele>
        <time>2016-03-07T14:40:09Z</time>
      </trkpt>
      <trkpt lat="43.82944" lon="4.28313">
        <ele>107.32</ele>
        <time>2016-03-07T14:40:12Z</time>
      </trkpt>
      <trkpt lat="43.82937" lon="4.28308">
        <ele>106.84</ele>
        <time>2016-03-07T14:40:20Z</time>
      </trkpt>
      <trkpt lat="43.82927" lon="4.28296">
        <ele>107.32</ele>
        <time>2016-03-07T14:40:32Z</time>
      </trkpt>
      <trkpt lat="43.82921" lon="4.28286">
        <ele>107.32</ele>
        <time>2016-03-07T14:40:41Z</time>
      </trkpt>
      <trkpt lat="43.8291" lon="4.28273">
        <ele>107.81</ele>
        <time>2016-03-07T14:40:53Z</time>
      </trkpt>
      <trkpt lat="43.82903" lon="4.28262">
        <ele>107.81</ele>
        <time>2016-03-07T14:41:06Z</time>
      </trkpt>
      <trkpt lat="43.82894" lon="4.2825">
        <ele>107.81</ele>
        <time>2016-03-07T14:41:17Z</time>
      </trkpt>
      <trkpt lat="43.82886" lon="4.28239">
        <ele>108.77</ele>
        <time>2016-03-07T14:41:28Z</time>
      </trkpt>
      <trkpt lat="43.82879" lon="4.28231">
        <ele>108.29</ele>
        <time>2016-03-07T14:41:39Z</time>
      </trkpt>
      <trkpt lat="43.82878" lon="4.2823">
        <ele>108.77</ele>
        <time>2016-03-07T14:41:49Z</time>
      </trkpt>
      <trkpt lat="43.82868" lon="4.28228">
        <ele>107.81</ele>
        <time>2016-03-07T14:42:00Z</time>
      </trkpt>
      <trkpt lat="43.82868" lon="4.28228">
        <ele>107.81</ele>
        <time>2016-03-07T14:42:01Z</time>
      </trkpt>
      <trkpt lat="43.82861" lon="4.28227">
        <ele>107.81</ele>
        <time>2016-03-07T14:42:07Z</time>
      </trkpt>
      <trkpt lat="43.82849" lon="4.28223">
        <ele>109.25</ele>
        <time>2016-03-07T14:42:19Z</time>
      </trkpt>
      <trkpt lat="43.82838" lon="4.28218">
        <ele>110.21</ele>
        <time>2016-03-07T14:42:30Z</time>
      </trkpt>
      <trkpt lat="43.82827" lon="4.28216">
        <ele>109.25</ele>
        <time>2016-03-07T14:42:42Z</time>
      </trkpt>
      <trkpt lat="43.82816" lon="4.28213">
        <ele>110.21</ele>
        <time>2016-03-07T14:42:53Z</time>
      </trkpt>
      <trkpt lat="43.82799" lon="4.28209">
        <ele>112.13</ele>
        <time>2016-03-07T14:43:04Z</time>
      </trkpt>
      <trkpt lat="43.82793" lon="4.28207">
        <ele>111.17</ele>
        <time>2016-03-07T14:43:15Z</time>
      </trkpt>
      <trkpt lat="43.82785" lon="4.28208">
        <ele>111.17</ele>
        <time>2016-03-07T14:43:26Z</time>
      </trkpt>
      <trkpt lat="43.82775" lon="4.28201">
        <ele>112.13</ele>
        <time>2016-03-07T14:43:36Z</time>
      </trkpt>
      <trkpt lat="43.82761" lon="4.28195">
        <ele>110.21</ele>
        <time>2016-03-07T14:43:48Z</time>
      </trkpt>
      <trkpt lat="43.82758" lon="4.28194">
        <ele>109.25</ele>
        <time>2016-03-07T14:43:52Z</time>
      </trkpt>
      <trkpt lat="43.82747" lon="4.28185">
        <ele>106.84</ele>
        <time>2016-03-07T14:44:04Z</time>
      </trkpt>
      <trkpt lat="43.82735" lon="4.28179">
        <ele>105.4</ele>
        <time>2016-03-07T14:44:15Z</time>
      </trkpt>
      <trkpt lat="43.82732" lon="4.28174">
        <ele>105.4</ele>
        <time>2016-03-07T14:44:19Z</time>
      </trkpt>
      <trkpt lat="43.82721" lon="4.28163">
        <ele>105.88</ele>
        <time>2016-03-07T14:44:31Z</time>
      </trkpt>
      <trkpt lat="43.82713" lon="4.28154">
        <ele>105.4</ele>
        <time>2016-03-07T14:44:40Z</time>
      </trkpt>
      <trkpt lat="43.8271" lon="4.28152">
        <ele>105.4</ele>
        <time>2016-03-07T14:44:43Z</time>
      </trkpt>
      <trkpt lat="43.82706" lon="4.2815">
        <ele>105.4</ele>
        <time>2016-03-07T14:44:47Z</time>
      </trkpt>
      <trkpt lat="43.82693" lon="4.28142">
        <ele>105.88</ele>
        <time>2016-03-07T14:45:00Z</time>
      </trkpt>
      <trkpt lat="43.82681" lon="4.28137">
        <ele>104.44</ele>
        <time>2016-03-07T14:45:10Z</time>
      </trkpt>
      <trkpt lat="43.82672" lon="4.2813">
        <ele>103.96</ele>
        <time>2016-03-07T14:45:20Z</time>
      </trkpt>
      <trkpt lat="43.82668" lon="4.28128">
        <ele>103.48</ele>
        <time>2016-03-07T14:45:24Z</time>
      </trkpt>
      <trkpt lat="43.82663" lon="4.28124">
        <ele>103</ele>
        <time>2016-03-07T14:45:29Z</time>
      </trkpt>
      <trkpt lat="43.82655" lon="4.28117">
        <ele>102.52</ele>
        <time>2016-03-07T14:45:38Z</time>
      </trkpt>
      <trkpt lat="43.82641" lon="4.28109">
        <ele>101.56</ele>
        <time>2016-03-07T14:45:50Z</time>
      </trkpt>
      <trkpt lat="43.82631" lon="4.28103">
        <ele>101.56</ele>
        <time>2016-03-07T14:46:01Z</time>
      </trkpt>
      <trkpt lat="43.8262" lon="4.28098">
        <ele>100.6</ele>
        <time>2016-03-07T14:46:11Z</time>
      </trkpt>
      <trkpt lat="43.82618" lon="4.28097">
        <ele>100.6</ele>
        <time>2016-03-07T14:46:14Z</time>
      </trkpt>
      <trkpt lat="43.82605" lon="4.28091">
        <ele>99.15</ele>
        <time>2016-03-07T14:46:26Z</time>
      </trkpt>
      <trkpt lat="43.82592" lon="4.28085">
        <ele>99.63</ele>
        <time>2016-03-07T14:46:37Z</time>
      </trkpt>
      <trkpt lat="43.82583" lon="4.28076">
        <ele>99.63</ele>
        <time>2016-03-07T14:46:47Z</time>
      </trkpt>
      <trkpt lat="43.82577" lon="4.28062">
        <ele>99.15</ele>
        <time>2016-03-07T14:46:58Z</time>
      </trkpt>
      <trkpt lat="43.82572" lon="4.28049">
        <ele>99.15</ele>
        <time>2016-03-07T14:47:08Z</time>
      </trkpt>
      <trkpt lat="43.8257" lon="4.28044">
        <ele>98.67</ele>
        <time>2016-03-07T14:47:12Z</time>
      </trkpt>
      <trkpt lat="43.82566" lon="4.28038">
        <ele>97.71</ele>
        <time>2016-03-07T14:47:17Z</time>
      </trkpt>
      <trkpt lat="43.82552" lon="4.28029">
        <ele>98.19</ele>
        <time>2016-03-07T14:47:29Z</time>
      </trkpt>
      <trkpt lat="43.82542" lon="4.28026">
        <ele>98.19</ele>
        <time>2016-03-07T14:47:40Z</time>
      </trkpt>
      <trkpt lat="43.82535" lon="4.28023">
        <ele>97.23</ele>
        <time>2016-03-07T14:47:54Z</time>
      </trkpt>
      <trkpt lat="43.82528" lon="4.28023">
        <ele>100.6</ele>
        <time>2016-03-07T14:48:10Z</time>
      </trkpt>
      <trkpt lat="43.82518" lon="4.2802">
        <ele>101.08</ele>
        <time>2016-03-07T14:48:21Z</time>
      </trkpt>
      <trkpt lat="43.82506" lon="4.28013">
        <ele>99.15</ele>
        <time>2016-03-07T14:48:33Z</time>
      </trkpt>
      <trkpt lat="43.82496" lon="4.28002">
        <ele>99.15</ele>
        <time>2016-03-07T14:48:44Z</time>
      </trkpt>
      <trkpt lat="43.82484" lon="4.27995">
        <ele>100.11</ele>
        <time>2016-03-07T14:48:57Z</time>
      </trkpt>
      <trkpt lat="43.82471" lon="4.27991">
        <ele>99.63</ele>
        <time>2016-03-07T14:49:09Z</time>
      </trkpt>
      <trkpt lat="43.82457" lon="4.27989">
        <ele>98.67</ele>
        <time>2016-03-07T14:49:20Z</time>
      </trkpt>
      <trkpt lat="43.82445" lon="4.27989">
        <ele>99.15</ele>
        <time>2016-03-07T14:49:31Z</time>
      </trkpt>
      <trkpt lat="43.82444" lon="4.27989">
        <ele>99.15</ele>
        <time>2016-03-07T14:49:32Z</time>
      </trkpt>
      <trkpt lat="43.82431" lon="4.27989">
        <ele>100.6</ele>
        <time>2016-03-07T14:49:44Z</time>
      </trkpt>
      <trkpt lat="43.82421" lon="4.27989">
        <ele>99.15</ele>
        <time>2016-03-07T14:49:55Z</time>
      </trkpt>
      <trkpt lat="43.8241" lon="4.27991">
        <ele>99.15</ele>
        <time>2016-03-07T14:50:07Z</time>
      </trkpt>
      <trkpt lat="43.82409" lon="4.2799">
        <ele>99.15</ele>
        <time>2016-03-07T14:50:09Z</time>
      </trkpt>
      <trkpt lat="43.82393" lon="4.27982">
        <ele>99.15</ele>
        <time>2016-03-07T14:50:22Z</time>
      </trkpt>
      <trkpt lat="43.82385" lon="4.27984">
        <ele>98.67</ele>
        <time>2016-03-07T14:50:32Z</time>
      </trkpt>
      <trkpt lat="43.82377" lon="4.27982">
        <ele>96.75</ele>
        <time>2016-03-07T14:50:40Z</time>
      </trkpt>
      <trkpt lat="43.82369" lon="4.27983">
        <ele>96.27</ele>
        <time>2016-03-07T14:50:48Z</time>
      </trkpt>
      <trkpt lat="43.82354" lon="4.27983">
        <ele>94.35</ele>
        <time>2016-03-07T14:51:02Z</time>
      </trkpt>
      <trkpt lat="43.82353" lon="4.27985">
        <ele>93.39</ele>
        <time>2016-03-07T14:51:15Z</time>
      </trkpt>
      <trkpt lat="43.82351" lon="4.27988">
        <ele>92.9</ele>
        <time>2016-03-07T14:51:40Z</time>
      </trkpt>
      <trkpt lat="43.82341" lon="4.27995">
        <ele>92.42</ele>
        <time>2016-03-07T14:51:55Z</time>
      </trkpt>
      <trkpt lat="43.82331" lon="4.28">
        <ele>91.46</ele>
        <time>2016-03-07T14:52:05Z</time>
      </trkpt>
      <trkpt lat="43.82328" lon="4.28002">
        <ele>91.46</ele>
        <time>2016-03-07T14:52:08Z</time>
      </trkpt>
      <trkpt lat="43.82323" lon="4.28007">
        <ele>90.5</ele>
        <time>2016-03-07T14:52:16Z</time>
      </trkpt>
      <trkpt lat="43.82311" lon="4.28014">
        <ele>86.66</ele>
        <time>2016-03-07T14:52:29Z</time>
      </trkpt>
      <trkpt lat="43.82299" lon="4.28024">
        <ele>86.18</ele>
        <time>2016-03-07T14:52:41Z</time>
      </trkpt>
      <trkpt lat="43.8229" lon="4.28029">
        <ele>85.69</ele>
        <time>2016-03-07T14:52:50Z</time>
      </trkpt>
      <trkpt lat="43.82285" lon="4.28025">
        <ele>87.14</ele>
        <time>2016-03-07T14:53:02Z</time>
      </trkpt>
      <trkpt lat="43.82284" lon="4.28023">
        <ele>88.58</ele>
        <time>2016-03-07T14:53:15Z</time>
      </trkpt>
      <trkpt lat="43.82282" lon="4.28023">
        <ele>86.66</ele>
        <time>2016-03-07T14:53:45Z</time>
      </trkpt>
      <trkpt lat="43.82281" lon="4.28021">
        <ele>86.66</ele>
        <time>2016-03-07T14:53:48Z</time>
      </trkpt>
      <trkpt lat="43.82281" lon="4.28018">
        <ele>86.66</ele>
        <time>2016-03-07T14:53:50Z</time>
      </trkpt>
      <trkpt lat="43.82281" lon="4.28014">
        <ele>87.14</ele>
        <time>2016-03-07T14:53:53Z</time>
      </trkpt>
      <trkpt lat="43.82278" lon="4.27995">
        <ele>87.14</ele>
        <time>2016-03-07T14:54:07Z</time>
      </trkpt>
      <trkpt lat="43.82277" lon="4.27982">
        <ele>87.62</ele>
        <time>2016-03-07T14:54:19Z</time>
      </trkpt>
      <trkpt lat="43.82273" lon="4.27966">
        <ele>88.1</ele>
        <time>2016-03-07T14:54:31Z</time>
      </trkpt>
      <trkpt lat="43.8227" lon="4.27947">
        <ele>87.14</ele>
        <time>2016-03-07T14:54:44Z</time>
      </trkpt>
      <trkpt lat="43.82269" lon="4.27932">
        <ele>87.62</ele>
        <time>2016-03-07T14:54:56Z</time>
      </trkpt>
      <trkpt lat="43.82268" lon="4.27918">
        <ele>88.58</ele>
        <time>2016-03-07T14:55:06Z</time>
      </trkpt>
      <trkpt lat="43.82269" lon="4.27912">
        <ele>88.58</ele>
        <time>2016-03-07T14:55:19Z</time>
      </trkpt>
      <trkpt lat="43.82269" lon="4.27911">
        <ele>88.58</ele>
        <time>2016-03-07T14:55:21Z</time>
      </trkpt>
      <trkpt lat="43.8227" lon="4.27893">
        <ele>88.58</ele>
        <time>2016-03-07T14:55:33Z</time>
      </trkpt>
      <trkpt lat="43.8227" lon="4.27892">
        <ele>88.58</ele>
        <time>2016-03-07T14:55:34Z</time>
      </trkpt>
      <trkpt lat="43.82271" lon="4.2787">
        <ele>89.54</ele>
        <time>2016-03-07T14:55:48Z</time>
      </trkpt>
      <trkpt lat="43.82273" lon="4.27848">
        <ele>90.02</ele>
        <time>2016-03-07T14:56:02Z</time>
      </trkpt>
      <trkpt lat="43.82275" lon="4.2783">
        <ele>90.5</ele>
        <time>2016-03-07T14:56:14Z</time>
      </trkpt>
      <trkpt lat="43.82278" lon="4.27811">
        <ele>90.98</ele>
        <time>2016-03-07T14:56:26Z</time>
      </trkpt>
      <trkpt lat="43.82279" lon="4.27793">
        <ele>90.5</ele>
        <time>2016-03-07T14:56:38Z</time>
      </trkpt>
      <trkpt lat="43.82283" lon="4.27776">
        <ele>90.5</ele>
        <time>2016-03-07T14:56:49Z</time>
      </trkpt>
      <trkpt lat="43.82287" lon="4.27758">
        <ele>91.46</ele>
        <time>2016-03-07T14:57:01Z</time>
      </trkpt>
      <trkpt lat="43.82292" lon="4.2774">
        <ele>92.9</ele>
        <time>2016-03-07T14:57:13Z</time>
      </trkpt>
      <trkpt lat="43.82297" lon="4.27722">
        <ele>92.42</ele>
        <time>2016-03-07T14:57:25Z</time>
      </trkpt>
      <trkpt lat="43.82303" lon="4.27704">
        <ele>92.9</ele>
        <time>2016-03-07T14:57:38Z</time>
      </trkpt>
      <trkpt lat="43.82308" lon="4.27685">
        <ele>91.94</ele>
        <time>2016-03-07T14:57:51Z</time>
      </trkpt>
      <trkpt lat="43.82312" lon="4.2767">
        <ele>92.42</ele>
        <time>2016-03-07T14:58:02Z</time>
      </trkpt>
      <trkpt lat="43.82319" lon="4.27657">
        <ele>92.9</ele>
        <time>2016-03-07T14:58:13Z</time>
      </trkpt>
      <trkpt lat="43.82329" lon="4.27661">
        <ele>92.9</ele>
        <time>2016-03-07T14:58:24Z</time>
      </trkpt>
      <trkpt lat="43.82331" lon="4.27662">
        <ele>92.42</ele>
        <time>2016-03-07T14:58:26Z</time>
      </trkpt>
      <trkpt lat="43.82342" lon="4.27671">
        <ele>91.94</ele>
        <time>2016-03-07T14:58:38Z</time>
      </trkpt>
      <trkpt lat="43.82354" lon="4.27672">
        <ele>90.98</ele>
        <time>2016-03-07T14:58:49Z</time>
      </trkpt>
      <trkpt lat="43.82368" lon="4.27669">
        <ele>91.46</ele>
        <time>2016-03-07T14:59:02Z</time>
      </trkpt>
      <trkpt lat="43.82377" lon="4.27668">
        <ele>91.46</ele>
        <time>2016-03-07T14:59:11Z</time>
      </trkpt>
      <trkpt lat="43.82384" lon="4.27672">
        <ele>91.46</ele>
        <time>2016-03-07T14:59:18Z</time>
      </trkpt>
      <trkpt lat="43.82395" lon="4.27672">
        <ele>90.98</ele>
        <time>2016-03-07T14:59:28Z</time>
      </trkpt>
      <trkpt lat="43.82407" lon="4.27669">
        <ele>93.87</ele>
        <time>2016-03-07T14:59:40Z</time>
      </trkpt>
      <trkpt lat="43.82418" lon="4.27666">
        <ele>94.83</ele>
        <time>2016-03-07T14:59:52Z</time>
      </trkpt>
      <trkpt lat="43.82432" lon="4.27663">
        <ele>94.35</ele>
        <time>2016-03-07T15:00:05Z</time>
      </trkpt>
      <trkpt lat="43.82446" lon="4.27659">
        <ele>96.75</ele>
        <time>2016-03-07T15:00:17Z</time>
      </trkpt>
      <trkpt lat="43.82447" lon="4.27658">
        <ele>96.75</ele>
        <time>2016-03-07T15:00:18Z</time>
      </trkpt>
      <trkpt lat="43.82448" lon="4.27655">
        <ele>96.27</ele>
        <time>2016-03-07T15:00:20Z</time>
      </trkpt>
      <trkpt lat="43.8246" lon="4.2764">
        <ele>95.31</ele>
        <time>2016-03-07T15:00:33Z</time>
      </trkpt>
      <trkpt lat="43.82464" lon="4.27628">
        <ele>94.35</ele>
        <time>2016-03-07T15:00:41Z</time>
      </trkpt>
      <trkpt lat="43.82471" lon="4.27616">
        <ele>94.35</ele>
        <time>2016-03-07T15:00:51Z</time>
      </trkpt>
      <trkpt lat="43.82483" lon="4.27609">
        <ele>95.31</ele>
        <time>2016-03-07T15:01:04Z</time>
      </trkpt>
      <trkpt lat="43.82494" lon="4.27607">
        <ele>94.35</ele>
        <time>2016-03-07T15:01:16Z</time>
      </trkpt>
      <trkpt lat="43.82497" lon="4.27607">
        <ele>93.87</ele>
        <time>2016-03-07T15:01:28Z</time>
      </trkpt>
      <trkpt lat="43.82505" lon="4.27607">
        <ele>94.35</ele>
        <time>2016-03-07T15:01:43Z</time>
      </trkpt>
      <trkpt lat="43.82516" lon="4.27606">
        <ele>93.39</ele>
        <time>2016-03-07T15:01:55Z</time>
      </trkpt>
      <trkpt lat="43.82523" lon="4.27608">
        <ele>93.39</ele>
        <time>2016-03-07T15:02:02Z</time>
      </trkpt>
      <trkpt lat="43.82528" lon="4.27607">
        <ele>93.39</ele>
        <time>2016-03-07T15:02:07Z</time>
      </trkpt>
      <trkpt lat="43.82533" lon="4.27599">
        <ele>93.87</ele>
        <time>2016-03-07T15:02:13Z</time>
      </trkpt>
      <trkpt lat="43.82536" lon="4.27582">
        <ele>95.79</ele>
        <time>2016-03-07T15:02:25Z</time>
      </trkpt>
      <trkpt lat="43.82537" lon="4.27573">
        <ele>95.79</ele>
        <time>2016-03-07T15:02:31Z</time>
      </trkpt>
      <trkpt lat="43.82535" lon="4.27557">
        <ele>96.75</ele>
        <time>2016-03-07T15:02:42Z</time>
      </trkpt>
      <trkpt lat="43.82547" lon="4.27545">
        <ele>97.23</ele>
        <time>2016-03-07T15:02:55Z</time>
      </trkpt>
      <trkpt lat="43.82556" lon="4.27542">
        <ele>98.19</ele>
        <time>2016-03-07T15:03:04Z</time>
      </trkpt>
      <trkpt lat="43.82561" lon="4.27539">
        <ele>97.71</ele>
        <time>2016-03-07T15:03:09Z</time>
      </trkpt>
      <trkpt lat="43.82572" lon="4.27526">
        <ele>99.15</ele>
        <time>2016-03-07T15:03:22Z</time>
      </trkpt>
      <trkpt lat="43.82583" lon="4.27515">
        <ele>99.15</ele>
        <time>2016-03-07T15:03:35Z</time>
      </trkpt>
      <trkpt lat="43.8259" lon="4.27513">
        <ele>99.15</ele>
        <time>2016-03-07T15:03:44Z</time>
      </trkpt>
      <trkpt lat="43.82603" lon="4.27519">
        <ele>98.19</ele>
        <time>2016-03-07T15:03:56Z</time>
      </trkpt>
      <trkpt lat="43.82617" lon="4.27516">
        <ele>99.63</ele>
        <time>2016-03-07T15:04:08Z</time>
      </trkpt>
      <trkpt lat="43.82632" lon="4.27509">
        <ele>100.6</ele>
        <time>2016-03-07T15:04:21Z</time>
      </trkpt>
      <trkpt lat="43.82645" lon="4.27501">
        <ele>100.11</ele>
        <time>2016-03-07T15:04:34Z</time>
      </trkpt>
      <trkpt lat="43.8266" lon="4.27493">
        <ele>100.11</ele>
        <time>2016-03-07T15:04:48Z</time>
      </trkpt>
      <trkpt lat="43.82666" lon="4.27489">
        <ele>99.63</ele>
        <time>2016-03-07T15:04:54Z</time>
      </trkpt>
      <trkpt lat="43.82671" lon="4.27485">
        <ele>99.63</ele>
        <time>2016-03-07T15:04:59Z</time>
      </trkpt>
      <trkpt lat="43.82684" lon="4.27475">
        <ele>101.56</ele>
        <time>2016-03-07T15:05:12Z</time>
      </trkpt>
      <trkpt lat="43.82691" lon="4.27467">
        <ele>102.52</ele>
        <time>2016-03-07T15:05:20Z</time>
      </trkpt>
      <trkpt lat="43.82702" lon="4.2745">
        <ele>103</ele>
        <time>2016-03-07T15:05:34Z</time>
      </trkpt>
      <trkpt lat="43.8271" lon="4.27433">
        <ele>103.48</ele>
        <time>2016-03-07T15:05:47Z</time>
      </trkpt>
      <trkpt lat="43.82716" lon="4.27416">
        <ele>104.44</ele>
        <time>2016-03-07T15:06:00Z</time>
      </trkpt>
      <trkpt lat="43.82718" lon="4.2741">
        <ele>104.44</ele>
        <time>2016-03-07T15:06:05Z</time>
      </trkpt>
      <trkpt lat="43.82722" lon="4.27391">
        <ele>107.32</ele>
        <time>2016-03-07T15:06:18Z</time>
      </trkpt>
      <trkpt lat="43.82726" lon="4.27375">
        <ele>108.77</ele>
        <time>2016-03-07T15:06:29Z</time>
      </trkpt>
      <trkpt lat="43.82726" lon="4.27374">
        <ele>108.77</ele>
        <time>2016-03-07T15:06:30Z</time>
      </trkpt>
      <trkpt lat="43.8273" lon="4.27357">
        <ele>109.25</ele>
        <time>2016-03-07T15:06:42Z</time>
      </trkpt>
      <trkpt lat="43.82735" lon="4.27339">
        <ele>110.69</ele>
        <time>2016-03-07T15:06:55Z</time>
      </trkpt>
      <trkpt lat="43.8274" lon="4.27322">
        <ele>111.17</ele>
        <time>2016-03-07T15:07:08Z</time>
      </trkpt>
      <trkpt lat="43.82744" lon="4.27307">
        <ele>110.69</ele>
        <time>2016-03-07T15:07:19Z</time>
      </trkpt>
      <trkpt lat="43.8275" lon="4.27288">
        <ele>111.65</ele>
        <time>2016-03-07T15:07:32Z</time>
      </trkpt>
      <trkpt lat="43.82755" lon="4.27272">
        <ele>112.13</ele>
        <time>2016-03-07T15:07:44Z</time>
      </trkpt>
      <trkpt lat="43.82757" lon="4.27253">
        <ele>111.17</ele>
        <time>2016-03-07T15:07:57Z</time>
      </trkpt>
      <trkpt lat="43.82756" lon="4.2724">
        <ele>111.17</ele>
        <time>2016-03-07T15:08:10Z</time>
      </trkpt>
      <trkpt lat="43.82753" lon="4.27232">
        <ele>109.73</ele>
        <time>2016-03-07T15:08:24Z</time>
      </trkpt>
      <trkpt lat="43.82743" lon="4.27225">
        <ele>109.25</ele>
        <time>2016-03-07T15:08:35Z</time>
      </trkpt>
      <trkpt lat="43.82732" lon="4.27219">
        <ele>109.25</ele>
        <time>2016-03-07T15:08:46Z</time>
      </trkpt>
      <trkpt lat="43.82717" lon="4.27213">
        <ele>108.77</ele>
        <time>2016-03-07T15:09:02Z</time>
      </trkpt>
      <trkpt lat="43.82711" lon="4.2719">
        <ele>106.36</ele>
        <time>2016-03-07T15:09:18Z</time>
      </trkpt>
      <trkpt lat="43.82708" lon="4.27168">
        <ele>104.44</ele>
        <time>2016-03-07T15:09:33Z</time>
      </trkpt>
      <trkpt lat="43.82704" lon="4.27149">
        <ele>102.04</ele>
        <time>2016-03-07T15:09:45Z</time>
      </trkpt>
      <trkpt lat="43.827" lon="4.27129">
        <ele>101.08</ele>
        <time>2016-03-07T15:09:58Z</time>
      </trkpt>
      <trkpt lat="43.82697" lon="4.27112">
        <ele>101.08</ele>
        <time>2016-03-07T15:10:09Z</time>
      </trkpt>
      <trkpt lat="43.82692" lon="4.27092">
        <ele>102.04</ele>
        <time>2016-03-07T15:10:22Z</time>
      </trkpt>
      <trkpt lat="43.82687" lon="4.27074">
        <ele>102.52</ele>
        <time>2016-03-07T15:10:35Z</time>
      </trkpt>
      <trkpt lat="43.82679" lon="4.27055">
        <ele>101.56</ele>
        <time>2016-03-07T15:10:48Z</time>
      </trkpt>
      <trkpt lat="43.82675" lon="4.27046">
        <ele>101.56</ele>
        <time>2016-03-07T15:10:55Z</time>
      </trkpt>
      <trkpt lat="43.82664" lon="4.27027">
        <ele>102.52</ele>
        <time>2016-03-07T15:11:10Z</time>
      </trkpt>
      <trkpt lat="43.82653" lon="4.2701">
        <ele>102.04</ele>
        <time>2016-03-07T15:11:23Z</time>
      </trkpt>
      <trkpt lat="43.82645" lon="4.26996">
        <ele>101.56</ele>
        <time>2016-03-07T15:11:35Z</time>
      </trkpt>
      <trkpt lat="43.82635" lon="4.26976">
        <ele>100.6</ele>
        <time>2016-03-07T15:11:49Z</time>
      </trkpt>
      <trkpt lat="43.82628" lon="4.26958">
        <ele>100.11</ele>
        <time>2016-03-07T15:12:03Z</time>
      </trkpt>
      <trkpt lat="43.82623" lon="4.26936">
        <ele>100.11</ele>
        <time>2016-03-07T15:12:18Z</time>
      </trkpt>
      <trkpt lat="43.82619" lon="4.26913">
        <ele>99.63</ele>
        <time>2016-03-07T15:12:32Z</time>
      </trkpt>
      <trkpt lat="43.82615" lon="4.26894">
        <ele>99.15</ele>
        <time>2016-03-07T15:12:44Z</time>
      </trkpt>
      <trkpt lat="43.82612" lon="4.26874">
        <ele>99.63</ele>
        <time>2016-03-07T15:12:57Z</time>
      </trkpt>
      <trkpt lat="43.82612" lon="4.26856">
        <ele>100.11</ele>
        <time>2016-03-07T15:13:08Z</time>
      </trkpt>
      <trkpt lat="43.82617" lon="4.2684">
        <ele>99.15</ele>
        <time>2016-03-07T15:13:20Z</time>
      </trkpt>
      <trkpt lat="43.82622" lon="4.26823">
        <ele>98.19</ele>
        <time>2016-03-07T15:13:31Z</time>
      </trkpt>
      <trkpt lat="43.82624" lon="4.2682">
        <ele>97.71</ele>
        <time>2016-03-07T15:13:35Z</time>
      </trkpt>
      <trkpt lat="43.82632" lon="4.2681">
        <ele>97.71</ele>
        <time>2016-03-07T15:13:44Z</time>
      </trkpt>
      <trkpt lat="43.82632" lon="4.268">
        <ele>97.23</ele>
        <time>2016-03-07T15:13:49Z</time>
      </trkpt>
      <trkpt lat="43.82626" lon="4.26781">
        <ele>97.23</ele>
        <time>2016-03-07T15:14:03Z</time>
      </trkpt>
      <trkpt lat="43.82625" lon="4.2678">
        <ele>97.23</ele>
        <time>2016-03-07T15:14:04Z</time>
      </trkpt>
      <trkpt lat="43.82621" lon="4.2676">
        <ele>97.23</ele>
        <time>2016-03-07T15:14:18Z</time>
      </trkpt>
      <trkpt lat="43.82617" lon="4.26738">
        <ele>97.71</ele>
        <time>2016-03-07T15:14:31Z</time>
      </trkpt>
      <trkpt lat="43.82613" lon="4.26719">
        <ele>96.75</ele>
        <time>2016-03-07T15:14:43Z</time>
      </trkpt>
      <trkpt lat="43.8261" lon="4.26698">
        <ele>98.67</ele>
        <time>2016-03-07T15:14:56Z</time>
      </trkpt>
      <trkpt lat="43.82604" lon="4.26677">
        <ele>100.11</ele>
        <time>2016-03-07T15:15:09Z</time>
      </trkpt>
      <trkpt lat="43.82598" lon="4.2666">
        <ele>99.15</ele>
        <time>2016-03-07T15:15:22Z</time>
      </trkpt>
      <trkpt lat="43.8259" lon="4.26643">
        <ele>98.19</ele>
        <time>2016-03-07T15:15:34Z</time>
      </trkpt>
      <trkpt lat="43.82582" lon="4.26625">
        <ele>97.71</ele>
        <time>2016-03-07T15:15:46Z</time>
      </trkpt>
      <trkpt lat="43.82572" lon="4.26608">
        <ele>97.71</ele>
        <time>2016-03-07T15:15:58Z</time>
      </trkpt>
      <trkpt lat="43.82564" lon="4.26595">
        <ele>97.71</ele>
        <time>2016-03-07T15:16:10Z</time>
      </trkpt>
      <trkpt lat="43.82552" lon="4.26577">
        <ele>97.71</ele>
        <time>2016-03-07T15:16:23Z</time>
      </trkpt>
      <trkpt lat="43.82543" lon="4.26562">
        <ele>97.71</ele>
        <time>2016-03-07T15:16:35Z</time>
      </trkpt>
      <trkpt lat="43.82532" lon="4.26546">
        <ele>97.71</ele>
        <time>2016-03-07T15:16:48Z</time>
      </trkpt>
      <trkpt lat="43.82523" lon="4.26533">
        <ele>97.23</ele>
        <time>2016-03-07T15:17:00Z</time>
      </trkpt>
      <trkpt lat="43.82512" lon="4.26518">
        <ele>96.27</ele>
        <time>2016-03-07T15:17:13Z</time>
      </trkpt>
      <trkpt lat="43.82507" lon="4.26513">
        <ele>94.83</ele>
        <time>2016-03-07T15:17:20Z</time>
      </trkpt>
      <trkpt lat="43.82495" lon="4.26501">
        <ele>95.31</ele>
        <time>2016-03-07T15:17:34Z</time>
      </trkpt>
      <trkpt lat="43.82482" lon="4.2649">
        <ele>93.39</ele>
        <time>2016-03-07T15:17:46Z</time>
      </trkpt>
      <trkpt lat="43.82475" lon="4.26478">
        <ele>91.46</ele>
        <time>2016-03-07T15:17:58Z</time>
      </trkpt>
      <trkpt lat="43.82473" lon="4.26471">
        <ele>92.42</ele>
        <time>2016-03-07T15:18:12Z</time>
      </trkpt>
      <trkpt lat="43.82475" lon="4.26465">
        <ele>91.46</ele>
        <time>2016-03-07T15:18:21Z</time>
      </trkpt>
      <trkpt lat="43.82483" lon="4.26444">
        <ele>90.02</ele>
        <time>2016-03-07T15:18:35Z</time>
      </trkpt>
      <trkpt lat="43.82483" lon="4.26442">
        <ele>89.54</ele>
        <time>2016-03-07T15:18:37Z</time>
      </trkpt>
      <trkpt lat="43.82484" lon="4.26438">
        <ele>89.54</ele>
        <time>2016-03-07T15:18:39Z</time>
      </trkpt>
      <trkpt lat="43.82488" lon="4.26422">
        <ele>89.06</ele>
        <time>2016-03-07T15:18:51Z</time>
      </trkpt>
      <trkpt lat="43.82488" lon="4.2642">
        <ele>89.06</ele>
        <time>2016-03-07T15:18:52Z</time>
      </trkpt>
      <trkpt lat="43.82496" lon="4.26402">
        <ele>88.1</ele>
        <time>2016-03-07T15:19:06Z</time>
      </trkpt>
      <trkpt lat="43.82502" lon="4.26383">
        <ele>89.54</ele>
        <time>2016-03-07T15:19:18Z</time>
      </trkpt>
      <trkpt lat="43.82503" lon="4.26379">
        <ele>89.54</ele>
        <time>2016-03-07T15:19:20Z</time>
      </trkpt>
      <trkpt lat="43.82505" lon="4.26374">
        <ele>90.02</ele>
        <time>2016-03-07T15:19:24Z</time>
      </trkpt>
      <trkpt lat="43.82512" lon="4.26365">
        <ele>91.94</ele>
        <time>2016-03-07T15:19:34Z</time>
      </trkpt>
      <trkpt lat="43.82517" lon="4.26361">
        <ele>92.9</ele>
        <time>2016-03-07T15:19:39Z</time>
      </trkpt>
      <trkpt lat="43.82521" lon="4.26356">
        <ele>93.87</ele>
        <time>2016-03-07T15:19:44Z</time>
      </trkpt>
      <trkpt lat="43.82523" lon="4.26352">
        <ele>93.87</ele>
        <time>2016-03-07T15:19:47Z</time>
      </trkpt>
      <trkpt lat="43.82535" lon="4.26341">
        <ele>92.42</ele>
        <time>2016-03-07T15:20:00Z</time>
      </trkpt>
      <trkpt lat="43.82538" lon="4.26338">
        <ele>92.42</ele>
        <time>2016-03-07T15:20:03Z</time>
      </trkpt>
      <trkpt lat="43.82541" lon="4.26334">
        <ele>93.39</ele>
        <time>2016-03-07T15:20:07Z</time>
      </trkpt>
      <trkpt lat="43.82551" lon="4.2632">
        <ele>95.79</ele>
        <time>2016-03-07T15:20:20Z</time>
      </trkpt>
      <trkpt lat="43.82559" lon="4.26309">
        <ele>96.75</ele>
        <time>2016-03-07T15:20:31Z</time>
      </trkpt>
      <trkpt lat="43.82574" lon="4.26296">
        <ele>92.9</ele>
        <time>2016-03-07T15:20:46Z</time>
      </trkpt>
      <trkpt lat="43.82585" lon="4.26279">
        <ele>89.06</ele>
        <time>2016-03-07T15:21:00Z</time>
      </trkpt>
      <trkpt lat="43.82592" lon="4.26261">
        <ele>87.14</ele>
        <time>2016-03-07T15:21:13Z</time>
      </trkpt>
      <trkpt lat="43.82603" lon="4.26248">
        <ele>88.58</ele>
        <time>2016-03-07T15:21:26Z</time>
      </trkpt>
      <trkpt lat="43.82608" lon="4.26243">
        <ele>87.14</ele>
        <time>2016-03-07T15:21:40Z</time>
      </trkpt>
      <trkpt lat="43.82613" lon="4.26234">
        <ele>86.66</ele>
        <time>2016-03-07T15:21:47Z</time>
      </trkpt>
      <trkpt lat="43.82619" lon="4.26227">
        <ele>85.69</ele>
        <time>2016-03-07T15:21:54Z</time>
      </trkpt>
      <trkpt lat="43.82625" lon="4.26215">
        <ele>86.18</ele>
        <time>2016-03-07T15:22:01Z</time>
      </trkpt>
      <trkpt lat="43.82634" lon="4.26196">
        <ele>86.66</ele>
        <time>2016-03-07T15:22:14Z</time>
      </trkpt>
      <trkpt lat="43.82638" lon="4.26187">
        <ele>87.14</ele>
        <time>2016-03-07T15:22:21Z</time>
      </trkpt>
      <trkpt lat="43.82639" lon="4.26183">
        <ele>86.18</ele>
        <time>2016-03-07T15:22:25Z</time>
      </trkpt>
      <trkpt lat="43.82651" lon="4.26182">
        <ele>87.14</ele>
        <time>2016-03-07T15:22:38Z</time>
      </trkpt>
      <trkpt lat="43.82654" lon="4.26181">
        <ele>88.1</ele>
        <time>2016-03-07T15:22:49Z</time>
      </trkpt>
      <trkpt lat="43.82661" lon="4.26184">
        <ele>88.1</ele>
        <time>2016-03-07T15:23:00Z</time>
      </trkpt>
      <trkpt lat="43.82672" lon="4.2619">
        <ele>86.18</ele>
        <time>2016-03-07T15:23:15Z</time>
      </trkpt>
      <trkpt lat="43.82683" lon="4.26194">
        <ele>86.18</ele>
        <time>2016-03-07T15:23:26Z</time>
      </trkpt>
      <trkpt lat="43.82698" lon="4.262">
        <ele>88.1</ele>
        <time>2016-03-07T15:23:39Z</time>
      </trkpt>
      <trkpt lat="43.827" lon="4.26202">
        <ele>88.58</ele>
        <time>2016-03-07T15:23:42Z</time>
      </trkpt>
      <trkpt lat="43.82716" lon="4.26204">
        <ele>90.98</ele>
        <time>2016-03-07T15:23:56Z</time>
      </trkpt>
      <trkpt lat="43.82723" lon="4.26203">
        <ele>91.46</ele>
        <time>2016-03-07T15:24:02Z</time>
      </trkpt>
      <trkpt lat="43.82731" lon="4.26188">
        <ele>90.02</ele>
        <time>2016-03-07T15:24:12Z</time>
      </trkpt>
      <trkpt lat="43.82735" lon="4.2617">
        <ele>87.62</ele>
        <time>2016-03-07T15:24:24Z</time>
      </trkpt>
      <trkpt lat="43.82736" lon="4.26164">
        <ele>87.14</ele>
        <time>2016-03-07T15:24:36Z</time>
      </trkpt>
      <trkpt lat="43.82737" lon="4.26162">
        <ele>90.02</ele>
        <time>2016-03-07T15:24:57Z</time>
      </trkpt>
    </trkseg>
  </trk>
</gpx>